Wetterdaten: Sonntag, 20.04.2014
Datum Zeit Temp. Aussen +5cm Feuchte Auss Luftdruck Regen Sonnenschein Regendauer UV Solar Windben
20.04.2014 00:00 13,0 C 11,1 C 79 % 1011,5 hPa 0,0 l/m 0 min 0 min 0,0 UV-I 0 W/m 0,0 km/h (0 Bft)
20.04.2014 00:02 12,9 C 11,1 C 79 % 1011,4 hPa 0,0 l/m 0 min 0 min 0,0 UV-I 0 W/m 0,0 km/h (0 Bft)
20.04.2014 00:06 12,8 C 11,1 C 79 % 1011,4 hPa 0,0 l/m 0 min 0 min 0,0 UV-I 0 W/m 2,6 km/h (1 Bft)
20.04.2014 00:08 12,8 C 11,1 C 79 % 1011,4 hPa 0,0 l/m 0 min 0 min 0,0 UV-I 0 W/m 0,0 km/h (0 Bft)
20.04.2014 00:10 12,8 C 10,6 C 79 % 1011,4 hPa 0,0 l/m 0 min 0 min 0,0 UV-I 0 W/m 0,0 km/h (0 Bft)
20.04.2014 00:12 12,7 C 10,6 C 80 % 1011,4 hPa 0,0 l/m 0 min 0 min 0,0 UV-I 0 W/m 2,6 km/h (1 Bft)
20.04.2014 00:14 12,7 C 10,6 C 80 % 1011,4 hPa 0,0 l/m 0 min 0 min 0,0 UV-I 0 W/m 2,6 km/h (1 Bft)
20.04.2014 00:16 12,7 C 10,6 C 80 % 1011,4 hPa 0,0 l/m 0 min 0 min 0,0 UV-I 0 W/m 2,6 km/h (1 Bft)
20.04.2014 00:18 12,7 C 10,6 C 80 % 1011,4 hPa 0,0 l/m 0 min 0 min 0,0 UV-I 0 W/m 0,0 km/h (0 Bft)
20.04.2014 00:20 12,7 C 10,6 C 80 % 1011,4 hPa 0,0 l/m 0 min 0 min 0,0 UV-I 0 W/m 0,0 km/h (0 Bft)
20.04.2014 00:22 12,7 C 10,6 C 80 % 1011,4 hPa 0,0 l/m 0 min 0 min 0,0 UV-I 0 W/m 12,9 km/h (3 Bft)
20.04.2014 00:24 12,7 C 10,6 C 80 % 1011,4 hPa 0,0 l/m 0 min 0 min 0,0 UV-I 0 W/m 7,7 km/h (2 Bft)
20.04.2014 00:26 12,7 C 10,6 C 80 % 1011,4 hPa 0,0 l/m 0 min 0 min 0,0 UV-I 0 W/m 2,6 km/h (1 Bft)
20.04.2014 00:28 12,7 C 10,6 C 80 % 1011,4 hPa 0,0 l/m 0 min 0 min 0,0 UV-I 0 W/m 7,7 km/h (2 Bft)
20.04.2014 00:30 12,6 C 10,6 C 80 % 1011,4 hPa 0,0 l/m 0 min 0 min 0,0 UV-I 0 W/m 2,6 km/h (1 Bft)
20.04.2014 00:32 12,6 C 10,6 C 80 % 1011,4 hPa 0,0 l/m 0 min 0 min 0,0 UV-I 0 W/m 5,1 km/h (1 Bft)
20.04.2014 00:34 12,6 C 10,6 C 80 % 1011,4 hPa 0,0 l/m 0 min 0 min 0,0 UV-I 0 W/m 2,6 km/h (1 Bft)
20.04.2014 00:36 12,6 C 10,6 C 80 % 1011,4 hPa 0,0 l/m 0 min 0 min 0,0 UV-I 0 W/m 0,0 km/h (0 Bft)
20.04.2014 00:38 12,6 C 10,6 C 80 % 1011,4 hPa 0,0 l/m 0 min 0 min 0,0 UV-I 0 W/m 0,0 km/h (0 Bft)
20.04.2014 00:40 12,5 C 10,6 C 80 % 1011,3 hPa 0,0 l/m 0 min 0 min 0,0 UV-I 0 W/m 2,6 km/h (1 Bft)
20.04.2014 00:42 12,5 C 10,6 C 80 % 1011,4 hPa 0,0 l/m 0 min 0 min 0,0 UV-I 0 W/m 0,0 km/h (0 Bft)
20.04.2014 00:44 12,4 C 10,6 C 80 % 1011,4 hPa 0,0 l/m 0 min 0 min 0,0 UV-I 0 W/m 0,0 km/h (0 Bft)
20.04.2014 00:46 12,4 C 10,6 C 80 % 1011,4 hPa 0,0 l/m 0 min 0 min 0,0 UV-I 0 W/m 5,1 km/h (1 Bft)
20.04.2014 00:48 12,4 C 10,6 C 80 % 1011,3 hPa 0,0 l/m 0 min 0 min 0,0 UV-I 0 W/m 0,0 km/h (0 Bft)
20.04.2014 00:50 12,4 C 10,6 C 80 % 1011,3 hPa 0,0 l/m 0 min 0 min 0,0 UV-I 0 W/m 2,6 km/h (1 Bft)
20.04.2014 00:52 12,4 C 10,6 C 80 % 1011,3 hPa 0,0 l/m 0 min 0 min 0,0 UV-I 0 W/m 5,1 km/h (1 Bft)
20.04.2014 00:54 12,4 C 10,6 C 80 % 1011,3 hPa 0,0 l/m 0 min 0 min 0,0 UV-I 0 W/m 5,1 km/h (1 Bft)
20.04.2014 00:56 12,4 C 10,6 C 80 % 1011,3 hPa 0,0 l/m 0 min 0 min 0,0 UV-I 0 W/m 0,0 km/h (0 Bft)
20.04.2014 00:58 12,3 C 10,6 C 80 % 1011,2 hPa 0,0 l/m 0 min 0 min 0,0 UV-I 0 W/m 0,0 km/h (0 Bft)
20.04.2014 01:00 12,3 C 10,6 C 80 % 1011,2 hPa 0,0 l/m 0 min 0 min 0,0 UV-I 0 W/m 0,0 km/h (0 Bft)
20.04.2014 01:04 12,3 C 10,0 C 80 % 1011,1 hPa 0,0 l/m 0 min 0 min 0,0 UV-I 0 W/m 7,7 km/h (2 Bft)
20.04.2014 01:06 12,3 C 10,6 C 80 % 1011,2 hPa 0,0 l/m 0 min 0 min 0,0 UV-I 0 W/m 0,0 km/h (0 Bft)
20.04.2014 01:08 12,2 C 10,0 C 80 % 1011,1 hPa 0,0 l/m 0 min 0 min 0,0 UV-I 0 W/m 2,6 km/h (1 Bft)
20.04.2014 01:10 12,2 C 10,0 C 80 % 1011,1 hPa 0,0 l/m 0 min 0 min 0,0 UV-I 0 W/m 0,0 km/h (0 Bft)
20.04.2014 01:12 12,2 C 10,6 C 80 % 1011,1 hPa 0,0 l/m 0 min 0 min 0,0 UV-I 0 W/m 0,0 km/h (0 Bft)
20.04.2014 01:14 12,2 C 10,6 C 80 % 1011,1 hPa 0,0 l/m 0 min 0 min 0,0 UV-I 0 W/m 2,6 km/h (1 Bft)
20.04.2014 01:16 12,2 C 10,0 C 80 % 1011,0 hPa 0,0 l/m 0 min 0 min 0,0 UV-I 0 W/m 0,0 km/h (0 Bft)
20.04.2014 01:18 12,2 C 10,0 C 80 % 1011,1 hPa 0,0 l/m 0 min 0 min 0,0 UV-I 0 W/m 0,0 km/h (0 Bft)
20.04.2014 01:20 12,2 C 10,0 C 80 % 1011,0 hPa 0,0 l/m 0 min 0 min 0,0 UV-I 0 W/m 2,6 km/h (1 Bft)
20.04.2014 01:22 12,2 C 10,0 C 80 % 1011,0 hPa 0,0 l/m 0 min 0 min 0,0 UV-I 0 W/m 0,0 km/h (0 Bft)
20.04.2014 01:24 12,1 C 10,6 C 80 % 1010,9 hPa 0,0 l/m 0 min 0 min 0,0 UV-I 0 W/m 18,0 km/h (3 Bft)
20.04.2014 01:26 12,1 C 10,6 C 80 % 1011,0 hPa 0,0 l/m 0 min 0 min 0,0 UV-I 0 W/m 0,0 km/h (0 Bft)
20.04.2014 01:28 12,1 C 10,0 C 80 % 1011,0 hPa 0,0 l/m 0 min 0 min 0,0 UV-I 0 W/m 7,7 km/h (2 Bft)
20.04.2014 01:30 12,1 C 10,0 C 81 % 1010,9 hPa 0,0 l/m 0 min 0 min 0,0 UV-I 0 W/m 2,6 km/h (1 Bft)
20.04.2014 01:32 12,0 C 10,0 C 81 % 1010,9 hPa 0,0 l/m 0 min 0 min 0,0 UV-I 0 W/m 0,0 km/h (0 Bft)
20.04.2014 01:34 11,9 C 10,0 C 81 % 1010,9 hPa 0,0 l/m 0 min 0 min 0,0 UV-I 0 W/m 0,0 km/h (0 Bft)
20.04.2014 01:36 11,9 C 10,0 C 81 % 1010,8 hPa 0,0 l/m 0 min 0 min 0,0 UV-I 0 W/m 12,9 km/h (3 Bft)
20.04.2014 01:38 11,9 C 10,0 C 81 % 1010,8 hPa 0,0 l/m 0 min 0 min 0,0 UV-I 0 W/m 5,1 km/h (1 Bft)
20.04.2014 01:40 11,9 C 10,0 C 81 % 1010,8 hPa 0,0 l/m 0 min 0 min 0,0 UV-I 0 W/m 7,7 km/h (2 Bft)
20.04.2014 01:42 11,9 C 10,0 C 81 % 1010,7 hPa 0,0 l/m 0 min 0 min 0,0 UV-I 0 W/m 2,6 km/h (1 Bft)
20.04.2014 01:44 11,9 C 10,0 C 81 % 1010,7 hPa 0,0 l/m 0 min 0 min 0,0 UV-I 0 W/m 0,0 km/h (0 Bft)
20.04.2014 01:46 11,9 C 10,0 C 82 % 1010,6 hPa 0,0 l/m 0 min 0 min 0,0 UV-I 0 W/m 5,1 km/h (1 Bft)
20.04.2014 01:48 11,9 C 10,0 C 82 % 1010,5 hPa 0,0 l/m 0 min 0 min 0,0 UV-I 0 W/m 5,1 km/h (1 Bft)
20.04.2014 01:50 11,8 C 10,0 C 82 % 1010,5 hPa 0,0 l/m 0 min 0 min 0,0 UV-I 0 W/m 0,0 km/h (0 Bft)
20.04.2014 01:52 11,8 C 10,0 C 82 % 1010,5 hPa 0,0 l/m 0 min 0 min 0,0 UV-I 0 W/m 0,0 km/h (0 Bft)
20.04.2014 01:54 11,8 C 10,0 C 82 % 1010,5 hPa 0,0 l/m 0 min 0 min 0,0 UV-I 0 W/m 0,0 km/h (0 Bft)
20.04.2014 01:56 11,7 C 10,0 C 82 % 1010,4 hPa 0,0 l/m 0 min 0 min 0,0 UV-I 0 W/m 0,0 km/h (0 Bft)
20.04.2014 01:58 11,7 C 10,0 C 82 % 1010,3 hPa 0,0 l/m 0 min 0 min 0,0 UV-I 0 W/m 0,0 km/h (0 Bft)
20.04.2014 02:00 11,7 C 10,0 C 83 % 1010,3 hPa 0,0 l/m 0 min 0 min 0,0 UV-I 0 W/m 0,0 km/h (0 Bft)
20.04.2014 02:02 11,7 C 10,0 C 83 % 1010,3 hPa 0,0 l/m 0 min 0 min 0,0 UV-I 0 W/m 7,7 km/h (2 Bft)
20.04.2014 02:06 11,6 C 10,0 C 83 % 1010,2 hPa 0,0 l/m 0 min 0 min 0,0 UV-I 0 W/m 7,7 km/h (2 Bft)
20.04.2014 02:08 11,7 C 10,0 C 83 % 1010,2 hPa 0,0 l/m 0 min 0 min 0,0 UV-I 0 W/m 7,7 km/h (2 Bft)
20.04.2014 02:10 11,7 C 10,0 C 83 % 1010,2 hPa 0,0 l/m 0 min 0 min 0,0 UV-I 0 W/m 0,0 km/h (0 Bft)
20.04.2014 02:12 11,6 C 10,0 C 83 % 1010,2 hPa 0,0 l/m 0 min 0 min 0,0 UV-I 0 W/m 2,6 km/h (1 Bft)
20.04.2014 02:14 11,7 C 10,0 C 84 % 1010,1 hPa 0,0 l/m 0 min 0 min 0,0 UV-I 0 W/m 0,0 km/h (0 Bft)
20.04.2014 02:16 11,7 C 10,0 C 84 % 1010,1 hPa 0,0 l/m 0 min 0 min 0,0 UV-I 0 W/m 2,6 km/h (1 Bft)
20.04.2014 02:18 11,7 C 10,0 C 84 % 1010,1 hPa 0,0 l/m 0 min 0 min 0,0 UV-I 0 W/m 0,0 km/h (0 Bft)
20.04.2014 02:20 11,7 C 10,0 C 84 % 1010,1 hPa 0,0 l/m 0 min 0 min 0,0 UV-I 0 W/m 7,7 km/h (2 Bft)
20.04.2014 02:22 11,7 C 10,0 C 84 % 1010,1 hPa 0,0 l/m 0 min 0 min 0,0 UV-I 0 W/m 12,9 km/h (3 Bft)
20.04.2014 02:24 11,7 C 10,0 C 84 % 1010,1 hPa 0,0 l/m 0 min 0 min 0,0 UV-I 0 W/m 0,0 km/h (0 Bft)
20.04.2014 02:26 11,7 C 10,0 C 84 % 1010,0 hPa 0,0 l/m 0 min 0 min 0,0 UV-I 0 W/m 0,0 km/h (0 Bft)
20.04.2014 02:28 11,7 C 10,0 C 84 % 1010,0 hPa 0,0 l/m 0 min 0 min 0,0 UV-I 0 W/m 5,1 km/h (1 Bft)
20.04.2014 02:30 11,7 C 10,0 C 84 % 1010,0 hPa 0,0 l/m 0 min 0 min 0,0 UV-I 0 W/m 12,9 km/h (3 Bft)
20.04.2014 02:32 11,8 C 10,0 C 84 % 1010,0 hPa 0,0 l/m 0 min 0 min 0,0 UV-I 0 W/m 0,0 km/h (0 Bft)
20.04.2014 02:34 11,8 C 10,0 C 84 % 1010,0 hPa 0,0 l/m 0 min 0 min 0,0 UV-I 0 W/m 2,6 km/h (1 Bft)
20.04.2014 02:36 11,8 C 10,0 C 84 % 1010,0 hPa 0,0 l/m 0 min 0 min 0,0 UV-I 0 W/m 2,6 km/h (1 Bft)
20.04.2014 02:38 11,8 C 10,0 C 84 % 1010,0 hPa 0,0 l/m 0 min 0 min 0,0 UV-I 0 W/m 2,6 km/h (1 Bft)
20.04.2014 02:40 11,7 C 10,0 C 84 % 1010,0 hPa 0,0 l/m 0 min 0 min 0,0 UV-I 0 W/m 0,0 km/h (0 Bft)
20.04.2014 02:42 11,7 C 10,0 C 84 % 1010,0 hPa 0,0 l/m 0 min 0 min 0,0 UV-I 0 W/m 7,7 km/h (2 Bft)
20.04.2014 02:44 11,7 C 10,0 C 84 % 1010,0 hPa 0,0 l/m 0 min 0 min 0,0 UV-I 0 W/m 5,1 km/h (1 Bft)
20.04.2014 02:46 11,7 C 10,0 C 84 % 1009,9 hPa 0,0 l/m 0 min 0 min 0,0 UV-I 0 W/m 0,0 km/h (0 Bft)
20.04.2014 02:48 11,6 C 10,0 C 84 % 1010,0 hPa 0,0 l/m 0 min 0 min 0,0 UV-I 0 W/m 12,9 km/h (3 Bft)
20.04.2014 02:50 11,7 C 10,0 C 85 % 1010,0 hPa 0,0 l/m 0 min 0 min 0,0 UV-I 0 W/m 0,0 km/h (0 Bft)
20.04.2014 02:52 11,7 C 10,0 C 85 % 1010,0 hPa 0,0 l/m 0 min 0 min 0,0 UV-I 0 W/m 2,6 km/h (1 Bft)
20.04.2014 02:54 11,7 C 10,0 C 85 % 1010,0 hPa 0,0 l/m 0 min 0 min 0,0 UV-I 0 W/m 0,0 km/h (0 Bft)
20.04.2014 02:56 11,7 C 10,0 C 85 % 1009,9 hPa 0,0 l/m 0 min 0 min 0,0 UV-I 0 W/m 2,6 km/h (1 Bft)
20.04.2014 02:58 11,7 C 10,0 C 85 % 1009,9 hPa 0,0 l/m 0 min 0 min 0,0 UV-I 0 W/m 0,0 km/h (0 Bft)
20.04.2014 03:00 11,6 C 10,0 C 85 % 1009,8 hPa 0,0 l/m 0 min 0 min 0,0 UV-I 0 W/m 2,6 km/h (1 Bft)
20.04.2014 03:02 11,6 C 9,4 C 85 % 1009,8 hPa 0,0 l/m 0 min 0 min 0,0 UV-I 0 W/m 7,7 km/h (2 Bft)
20.04.2014 03:06 11,6 C 10,0 C 85 % 1009,7 hPa 0,0 l/m 0 min 0 min 0,0 UV-I 0 W/m 10,3 km/h (2 Bft)
20.04.2014 03:08 11,6 C 10,0 C 86 % 1009,6 hPa 0,0 l/m 0 min 0 min 0,0 UV-I 0 W/m 2,6 km/h (1 Bft)
20.04.2014 03:10 11,6 C 10,0 C 86 % 1009,6 hPa 0,0 l/m 0 min 0 min 0,0 UV-I 0 W/m 0,0 km/h (0 Bft)
20.04.2014 03:12 11,5 C 9,4 C 86 % 1009,6 hPa 0,0 l/m 0 min 0 min 0,0 UV-I 0 W/m 0,0 km/h (0 Bft)
20.04.2014 03:14 11,4 C 9,4 C 86 % 1009,8 hPa 0,0 l/m 0 min 0 min 0,0 UV-I 0 W/m 0,0 km/h (0 Bft)
20.04.2014 03:16 11,4 C 9,4 C 86 % 1009,8 hPa 0,0 l/m 0 min 0 min 0,0 UV-I 0 W/m 7,7 km/h (2 Bft)
20.04.2014 03:18 11,4 C 9,4 C 86 % 1009,7 hPa 0,0 l/m 0 min 0 min 0,0 UV-I 0 W/m 0,0 km/h (0 Bft)
20.04.2014 03:20 11,4 C 9,4 C 86 % 1009,8 hPa 0,0 l/m 0 min 0 min 0,0 UV-I 0 W/m 0,0 km/h (0 Bft)
20.04.2014 03:22 11,4 C 9,4 C 86 % 1009,8 hPa 0,0 l/m 0 min 0 min 0,0 UV-I 0 W/m 0,0 km/h (0 Bft)
20.04.2014 03:24 11,3 C 9,4 C 86 % 1009,7 hPa 0,0 l/m 0 min 0 min 0,0 UV-I 0 W/m 0,0 km/h (0 Bft)
20.04.2014 03:26 11,3 C 9,4 C 87 % 1009,7 hPa 0,0 l/m 0 min 0 min 0,0 UV-I 0 W/m 2,6 km/h (1 Bft)
20.04.2014 03:28 11,3 C 9,4 C 87 % 1009,6 hPa 0,0 l/m 0 min 0 min 0,0 UV-I 0 W/m 0,0 km/h (0 Bft)
20.04.2014 03:30 11,3 C 9,4 C 87 % 1009,7 hPa 0,0 l/m 0 min 0 min 0,0 UV-I 0 W/m 0,0 km/h (0 Bft)
20.04.2014 03:32 11,2 C 9,4 C 87 % 1009,7 hPa 0,0 l/m 0 min 0 min 0,0 UV-I 0 W/m 0,0 km/h (0 Bft)
20.04.2014 03:34 11,2 C 9,4 C 87 % 1009,7 hPa 0,0 l/m 0 min 0 min 0,0 UV-I 0 W/m 0,0 km/h (0 Bft)
20.04.2014 03:36 11,2 C 9,4 C 87 % 1009,7 hPa 0,0 l/m 0 min 0 min 0,0 UV-I 0 W/m 0,0 km/h (0 Bft)
20.04.2014 03:38 11,2 C 9,4 C 87 % 1009,6 hPa 0,0 l/m 0 min 0 min 0,0 UV-I 0 W/m 0,0 km/h (0 Bft)
20.04.2014 03:40 11,2 C 9,4 C 87 % 1009,5 hPa 0,0 l/m 0 min 0 min 0,0 UV-I 0 W/m 2,6 km/h (1 Bft)
20.04.2014 03:42 11,3 C 9,4 C 88 % 1009,4 hPa 0,0 l/m 0 min 0 min 0,0 UV-I 0 W/m 0,0 km/h (0 Bft)
20.04.2014 03:44 11,3 C 9,4 C 87 % 1009,4 hPa 0,0 l/m 0 min 0 min 0,0 UV-I 0 W/m 5,1 km/h (1 Bft)
20.04.2014 03:46 11,3 C 9,4 C 87 % 1009,4 hPa 0,0 l/m 0 min 0 min 0,0 UV-I 0 W/m 7,7 km/h (2 Bft)
20.04.2014 03:48 11,3 C 9,4 C 87 % 1009,4 hPa 0,0 l/m 0 min 0 min 0,0 UV-I 0 W/m 7,7 km/h (2 Bft)
20.04.2014 03:50 11,3 C 9,4 C 88 % 1009,4 hPa 0,0 l/m 0 min 0 min 0,0 UV-I 0 W/m 2,6 km/h (1 Bft)
20.04.2014 03:52 11,3 C 9,4 C 88 % 1009,4 hPa 0,0 l/m 0 min 0 min 0,0 UV-I 0 W/m 0,0 km/h (0 Bft)
20.04.2014 03:54 11,3 C 9,4 C 87 % 1009,4 hPa 0,0 l/m 0 min 0 min 0,0 UV-I 0 W/m 0,0 km/h (0 Bft)
20.04.2014 03:56 11,3 C 9,4 C 88 % 1009,4 hPa 0,0 l/m 0 min 0 min 0,0 UV-I 0 W/m 0,0 km/h (0 Bft)
20.04.2014 03:58 11,2 C 9,4 C 88 % 1009,4 hPa 0,0 l/m 0 min 0 min 0,0 UV-I 0 W/m 0,0 km/h (0 Bft)
20.04.2014 04:00 11,2 C 9,4 C 88 % 1009,4 hPa 0,0 l/m 0 min 0 min 0,0 UV-I 0 W/m 0,0 km/h (0 Bft)
20.04.2014 04:02 11,2 C 9,4 C 88 % 1009,4 hPa 0,0 l/m 0 min 0 min 0,0 UV-I 0 W/m 5,1 km/h (1 Bft)
20.04.2014 04:06 11,1 C 9,4 C 88 % 1009,5 hPa 0,0 l/m 0 min 0 min 0,0 UV-I 0 W/m 5,1 km/h (1 Bft)
20.04.2014 04:08 11,1 C 9,4 C 88 % 1009,4 hPa 0,0 l/m 0 min 0 min 0,0 UV-I 0 W/m 0,0 km/h (0 Bft)
20.04.2014 04:10 11,1 C 9,4 C 88 % 1009,4 hPa 0,0 l/m 0 min 0 min 0,0 UV-I 0 W/m 0,0 km/h (0 Bft)
20.04.2014 04:12 11,1 C 9,4 C 88 % 1009,4 hPa 0,0 l/m 0 min 0 min 0,0 UV-I 0 W/m 2,6 km/h (1 Bft)
20.04.2014 04:14 11,1 C 9,4 C 89 % 1009,4 hPa 0,0 l/m 0 min 0 min 0,0 UV-I 0 W/m 0,0 km/h (0 Bft)
20.04.2014 04:16 11,1 C 9,4 C 88 % 1009,4 hPa 0,0 l/m 0 min 0 min 0,0 UV-I 0 W/m 0,0 km/h (0 Bft)
20.04.2014 04:18 11,1 C 9,4 C 89 % 1009,4 hPa 0,0 l/m 0 min 0 min 0,0 UV-I 0 W/m 0,0 km/h (0 Bft)
20.04.2014 04:20 11,1 C 9,4 C 88 % 1009,4 hPa 0,0 l/m 0 min 0 min 0,0 UV-I 0 W/m 5,1 km/h (1 Bft)
20.04.2014 04:22 11,1 C 9,4 C 89 % 1009,4 hPa 0,0 l/m 0 min 0 min 0,0 UV-I 0 W/m 5,1 km/h (1 Bft)
20.04.2014 04:24 11,2 C 9,4 C 89 % 1009,4 hPa 0,0 l/m 0 min 0 min 0,0 UV-I 0 W/m 0,0 km/h (0 Bft)
20.04.2014 04:26 11,2 C 9,4 C 89 % 1009,4 hPa 0,0 l/m 0 min 0 min 0,0 UV-I 0 W/m 5,1 km/h (1 Bft)
20.04.2014 04:28 11,2 C 9,4 C 89 % 1009,3 hPa 0,0 l/m 0 min 0 min 0,0 UV-I 0 W/m 0,0 km/h (0 Bft)
20.04.2014 04:30 11,2 C 9,4 C 89 % 1009,4 hPa 0,0 l/m 0 min 0 min 0,0 UV-I 0 W/m 0,0 km/h (0 Bft)
20.04.2014 04:32 11,2 C 9,4 C 89 % 1009,4 hPa 0,0 l/m 0 min 0 min 0,0 UV-I 0 W/m 0,0 km/h (0 Bft)
20.04.2014 04:34 11,1 C 9,4 C 88 % 1009,3 hPa 0,0 l/m 0 min 0 min 0,0 UV-I 0 W/m 0,0 km/h (0 Bft)
20.04.2014 04:36 11,1 C 9,4 C 89 % 1009,3 hPa 0,0 l/m 0 min 0 min 0,0 UV-I 0 W/m 0,0 km/h (0 Bft)
20.04.2014 04:38 11,1 C 8,9 C 88 % 1009,4 hPa 0,0 l/m 0 min 0 min 0,0 UV-I 0 W/m 0,0 km/h (0 Bft)
20.04.2014 04:40 11,0 C 8,9 C 89 % 1009,2 hPa 0,0 l/m 0 min 0 min 0,0 UV-I 0 W/m 5,1 km/h (1 Bft)
20.04.2014 04:42 11,0 C 9,4 C 89 % 1009,3 hPa 0,0 l/m 0 min 0 min 0,0 UV-I 0 W/m 5,1 km/h (1 Bft)
20.04.2014 04:44 11,0 C 9,4 C 89 % 1009,2 hPa 0,0 l/m 0 min 0 min 0,0 UV-I 0 W/m 12,9 km/h (3 Bft)
20.04.2014 04:46 10,9 C 9,4 C 89 % 1009,2 hPa 0,0 l/m 0 min 0 min 0,0 UV-I 0 W/m 0,0 km/h (0 Bft)
20.04.2014 04:48 10,9 C 8,9 C 89 % 1009,1 hPa 0,0 l/m 0 min 0 min 0,0 UV-I 0 W/m 0,0 km/h (0 Bft)
20.04.2014 04:50 10,9 C 8,9 C 89 % 1009,1 hPa 0,0 l/m 0 min 0 min 0,0 UV-I 0 W/m 0,0 km/h (0 Bft)
20.04.2014 04:52 10,9 C 9,4 C 89 % 1009,1 hPa 0,0 l/m 0 min 0 min 0,0 UV-I 0 W/m 0,0 km/h (0 Bft)
20.04.2014 04:54 10,9 C 9,4 C 89 % 1009,1 hPa 0,0 l/m 0 min 0 min 0,0 UV-I 0 W/m 0,0 km/h (0 Bft)
20.04.2014 04:56 10,9 C 9,4 C 90 % 1009,1 hPa 0,0 l/m 0 min 0 min 0,0 UV-I 0 W/m 0,0 km/h (0 Bft)
20.04.2014 04:58 10,9 C 9,4 C 89 % 1009,1 hPa 0,0 l/m 0 min 0 min 0,0 UV-I 0 W/m 0,0 km/h (0 Bft)
20.04.2014 05:00 10,9 C 8,9 C 89 % 1009,0 hPa 0,0 l/m 0 min 0 min 0,0 UV-I 0 W/m 0,0 km/h (0 Bft)
20.04.2014 05:02 10,9 C 8,9 C 89 % 1009,0 hPa 0,0 l/m 0 min 0 min 0,0 UV-I 0 W/m 0,0 km/h (0 Bft)
20.04.2014 05:06 10,8 C 8,9 C 90 % 1009,0 hPa 0,0 l/m 0 min 0 min 0,0 UV-I 0 W/m 2,6 km/h (1 Bft)
20.04.2014 05:08 10,8 C 8,9 C 90 % 1009,0 hPa 0,0 l/m 0 min 0 min 0,0 UV-I 0 W/m 0,0 km/h (0 Bft)
20.04.2014 05:10 10,7 C 8,9 C 90 % 1009,1 hPa 0,0 l/m 0 min 0 min 0,0 UV-I 0 W/m 0,0 km/h (0 Bft)
20.04.2014 05:12 10,7 C 8,9 C 90 % 1009,0 hPa 0,0 l/m 0 min 0 min 0,0 UV-I 0 W/m 0,0 km/h (0 Bft)
20.04.2014 05:14 10,7 C 8,9 C 90 % 1009,0 hPa 0,0 l/m 0 min 0 min 0,0 UV-I 0 W/m 0,0 km/h (0 Bft)
20.04.2014 05:16 10,7 C 8,9 C 90 % 1009,0 hPa 0,0 l/m 0 min 0 min 0,0 UV-I 0 W/m 0,0 km/h (0 Bft)
20.04.2014 05:18 10,7 C 8,9 C 90 % 1009,0 hPa 0,0 l/m 0 min 0 min 0,0 UV-I 0 W/m 0,0 km/h (0 Bft)
20.04.2014 05:20 10,7 C 8,9 C 90 % 1008,9 hPa 0,0 l/m 0 min 0 min 0,0 UV-I 0 W/m 0,0 km/h (0 Bft)
20.04.2014 05:22 10,7 C 8,9 C 90 % 1008,9 hPa 0,0 l/m 0 min 0 min 0,0 UV-I 0 W/m 0,0 km/h (0 Bft)
20.04.2014 05:24 10,8 C 9,4 C 91 % 1008,8 hPa 0,0 l/m 0 min 0 min 0,0 UV-I 0 W/m 0,0 km/h (0 Bft)
20.04.2014 05:26 10,8 C 9,4 C 90 % 1008,8 hPa 0,0 l/m 0 min 0 min 0,0 UV-I 0 W/m 2,6 km/h (1 Bft)
20.04.2014 05:28 10,9 C 9,4 C 90 % 1008,7 hPa 0,0 l/m 0 min 0 min 0,0 UV-I 0 W/m 5,1 km/h (1 Bft)
20.04.2014 05:30 10,9 C 9,4 C 90 % 1008,7 hPa 0,0 l/m 0 min 0 min 0,0 UV-I 0 W/m 0,0 km/h (0 Bft)
20.04.2014 05:32 10,9 C 9,4 C 90 % 1008,6 hPa 0,0 l/m 0 min 0 min 0,0 UV-I 0 W/m 0,0 km/h (0 Bft)
20.04.2014 05:34 11,0 C 9,4 C 90 % 1008,6 hPa 0,0 l/m 0 min 0 min 0,0 UV-I 0 W/m 2,6 km/h (1 Bft)
20.04.2014 05:36 11,0 C 9,4 C 90 % 1008,6 hPa 0,0 l/m 0 min 0 min 0,0 UV-I 0 W/m 0,0 km/h (0 Bft)
20.04.2014 05:38 11,1 C 9,4 C 90 % 1008,6 hPa 0,0 l/m 0 min 0 min 0,0 UV-I 0 W/m 5,1 km/h (1 Bft)
20.04.2014 05:40 11,1 C 10,0 C 90 % 1008,5 hPa 0,0 l/m 0 min 0 min 0,0 UV-I 0 W/m 0,0 km/h (0 Bft)
20.04.2014 05:42 11,2 C 10,0 C 90 % 1008,5 hPa 0,0 l/m 0 min 0 min 0,0 UV-I 0 W/m 0,0 km/h (0 Bft)
20.04.2014 05:44 11,2 C 10,0 C 90 % 1008,5 hPa 0,0 l/m 0 min 0 min 0,0 UV-I 0 W/m 2,6 km/h (1 Bft)
20.04.2014 05:46 11,2 C 10,0 C 90 % 1008,5 hPa 0,0 l/m 0 min 0 min 0,0 UV-I 0 W/m 0,0 km/h (0 Bft)
20.04.2014 05:48 11,2 C 10,0 C 90 % 1008,5 hPa 0,0 l/m 0 min 0 min 0,0 UV-I 0 W/m 0,0 km/h (0 Bft)
20.04.2014 05:50 11,2 C 10,0 C 90 % 1008,5 hPa 0,0 l/m 0 min 0 min 0,0 UV-I 0 W/m 2,6 km/h (1 Bft)
20.04.2014 05:52 11,2 C 10,0 C 90 % 1008,4 hPa 0,0 l/m 0 min 0 min 0,0 UV-I 0 W/m 0,0 km/h (0 Bft)
20.04.2014 05:54 11,2 C 10,0 C 90 % 1008,4 hPa 0,0 l/m 0 min 0 min 0,0 UV-I 0 W/m 0,0 km/h (0 Bft)
20.04.2014 05:56 11,2 C 10,0 C 90 % 1008,4 hPa 0,0 l/m 0 min 0 min 0,0 UV-I 0 W/m 0,0 km/h (0 Bft)
20.04.2014 05:58 11,2 C 10,0 C 90 % 1008,5 hPa 0,0 l/m 0 min 0 min 0,0 UV-I 0 W/m 0,0 km/h (0 Bft)
20.04.2014 06:00 11,2 C 10,0 C 90 % 1008,5 hPa 0,0 l/m 0 min 0 min 0,0 UV-I 0 W/m 0,0 km/h (0 Bft)
20.04.2014 06:02 11,3 C 10,0 C 90 % 1008,4 hPa 0,0 l/m 0 min 0 min 0,0 UV-I 0 W/m 0,0 km/h (0 Bft)
20.04.2014 06:06 11,3 C 10,0 C 90 % 1008,5 hPa 0,0 l/m 0 min 0 min 0,0 UV-I 0 W/m 2,6 km/h (1 Bft)
20.04.2014 06:08 11,3 C 10,0 C 90 % 1008,5 hPa 0,0 l/m 0 min 0 min 0,0 UV-I 0 W/m 0,0 km/h (0 Bft)
20.04.2014 06:10 11,3 C 10,0 C 90 % 1008,4 hPa 0,0 l/m 0 min 0 min 0,0 UV-I 0 W/m 0,0 km/h (0 Bft)
20.04.2014 06:12 11,4 C 10,0 C 90 % 1008,5 hPa 0,0 l/m 0 min 0 min 0,0 UV-I 0 W/m 0,0 km/h (0 Bft)
20.04.2014 06:14 11,4 C 10,0 C 90 % 1008,5 hPa 0,0 l/m 0 min 0 min 0,0 UV-I 0 W/m 0,0 km/h (0 Bft)
20.04.2014 06:16 11,4 C 10,0 C 90 % 1008,5 hPa 0,0 l/m 0 min 0 min 0,0 UV-I 0 W/m 2,6 km/h (1 Bft)
20.04.2014 06:18 11,4 C 10,0 C 90 % 1008,4 hPa 0,0 l/m 0 min 0 min 0,0 UV-I 0 W/m 0,0 km/h (0 Bft)
20.04.2014 06:20 11,4 C 10,0 C 90 % 1008,5 hPa 0,0 l/m 0 min 0 min 0,0 UV-I 0 W/m 0,0 km/h (0 Bft)
20.04.2014 06:22 11,5 C 10,0 C 90 % 1008,4 hPa 0,0 l/m 0 min 0 min 0,0 UV-I 0 W/m 0,0 km/h (0 Bft)
20.04.2014 06:24 11,5 C 10,0 C 89 % 1008,4 hPa 0,0 l/m 0 min 0 min 0,0 UV-I 0 W/m 0,0 km/h (0 Bft)
20.04.2014 06:26 11,5 C 10,0 C 89 % 1008,4 hPa 0,0 l/m 0 min 0 min 0,0 UV-I 0 W/m 2,6 km/h (1 Bft)
20.04.2014 06:28 11,6 C 10,0 C 89 % 1008,5 hPa 0,0 l/m 0 min 0 min 0,0 UV-I 0 W/m 2,6 km/h (1 Bft)
20.04.2014 06:30 11,6 C 10,0 C 89 % 1008,4 hPa 0,0 l/m 0 min 0 min 0,0 UV-I 0 W/m 0,0 km/h (0 Bft)
20.04.2014 06:32 11,6 C 10,0 C 89 % 1008,4 hPa 0,0 l/m 0 min 0 min 0,0 UV-I 0 W/m 7,7 km/h (2 Bft)
20.04.2014 06:34 11,6 C 10,0 C 89 % 1008,4 hPa 0,0 l/m 0 min 0 min 0,0 UV-I 0 W/m 5,1 km/h (1 Bft)
20.04.2014 06:36 11,6 C 10,0 C 89 % 1008,4 hPa 0,0 l/m 0 min 0 min 0,0 UV-I 0 W/m 0,0 km/h (0 Bft)
20.04.2014 06:38 11,6 C 10,0 C 89 % 1008,4 hPa 0,0 l/m 0 min 0 min 0,0 UV-I 0 W/m 5,1 km/h (1 Bft)
20.04.2014 06:40 11,7 C 10,0 C 89 % 1008,4 hPa 0,0 l/m 0 min 0 min 0,0 UV-I 0 W/m 2,6 km/h (1 Bft)
20.04.2014 06:42 11,7 C 10,0 C 89 % 1008,5 hPa 0,0 l/m 0 min 0 min 0,0 UV-I 0 W/m 0,0 km/h (0 Bft)
20.04.2014 06:44 11,7 C 10,6 C 89 % 1008,5 hPa 0,0 l/m 0 min 0 min 0,0 UV-I 0 W/m 7,7 km/h (2 Bft)
20.04.2014 06:46 11,7 C 10,6 C 89 % 1008,4 hPa 0,0 l/m 0 min 0 min 0,0 UV-I 5 W/m 5,1 km/h (1 Bft)
20.04.2014 06:48 11,7 C 10,6 C 89 % 1008,4 hPa 0,0 l/m 0 min 0 min 0,0 UV-I 5 W/m 0,0 km/h (0 Bft)
20.04.2014 06:50 11,7 C 10,6 C 89 % 1008,3 hPa 0,0 l/m 0 min 0 min 0,0 UV-I 5 W/m 0,0 km/h (0 Bft)
20.04.2014 06:52 11,7 C 10,6 C 89 % 1008,4 hPa 0,0 l/m 0 min 0 min 0,0 UV-I 5 W/m 0,0 km/h (0 Bft)
20.04.2014 06:54 11,7 C 10,6 C 89 % 1008,3 hPa 0,0 l/m 0 min 0 min 0,0 UV-I 5 W/m 0,0 km/h (0 Bft)
20.04.2014 06:56 11,7 C 10,6 C 89 % 1008,3 hPa 0,0 l/m 0 min 0 min 0,0 UV-I 7 W/m 2,6 km/h (1 Bft)
20.04.2014 06:58 11,7 C 10,6 C 89 % 1008,3 hPa 0,0 l/m 0 min 0 min 0,0 UV-I 9 W/m 0,0 km/h (0 Bft)
20.04.2014 07:00 11,7 C 10,6 C 89 % 1008,3 hPa 0,0 l/m 0 min 0 min 0,0 UV-I 9 W/m 0,0 km/h (0 Bft)
20.04.2014 07:02 11,7 C 10,6 C 89 % 1008,2 hPa 0,0 l/m 0 min 0 min 0,0 UV-I 9 W/m 0,0 km/h (0 Bft)
20.04.2014 07:06 11,7 C 10,6 C 89 % 1008,3 hPa 0,0 l/m 0 min 0 min 0,0 UV-I 12 W/m 5,1 km/h (1 Bft)
20.04.2014 07:08 11,7 C 10,6 C 89 % 1008,2 hPa 0,0 l/m 0 min 0 min 0,0 UV-I 12 W/m 2,6 km/h (1 Bft)
20.04.2014 07:10 11,7 C 10,6 C 89 % 1008,3 hPa 0,0 l/m 0 min 0 min 0,0 UV-I 14 W/m 0,0 km/h (0 Bft)
20.04.2014 07:12 11,7 C 10,6 C 89 % 1008,2 hPa 0,0 l/m 0 min 0 min 0,0 UV-I 16 W/m 0,0 km/h (0 Bft)
20.04.2014 07:14 11,7 C 10,6 C 89 % 1008,2 hPa 0,0 l/m 0 min 0 min 0,0 UV-I 18 W/m 5,1 km/h (1 Bft)
20.04.2014 07:16 11,7 C 10,6 C 89 % 1008,2 hPa 0,0 l/m 0 min 0 min 0,0 UV-I 21 W/m 2,6 km/h (1 Bft)
20.04.2014 07:18 11,7 C 10,6 C 89 % 1008,2 hPa 0,0 l/m 0 min 0 min 0,0 UV-I 23 W/m 2,6 km/h (1 Bft)
20.04.2014 07:20 11,7 C 10,6 C 89 % 1008,2 hPa 0,0 l/m 0 min 0 min 0,0 UV-I 25 W/m 0,0 km/h (0 Bft)
20.04.2014 07:22 11,7 C 10,6 C 89 % 1008,2 hPa 0,0 l/m 0 min 0 min 0,0 UV-I 25 W/m 0,0 km/h (0 Bft)
20.04.2014 07:24 11,7 C 10,6 C 89 % 1008,2 hPa 0,0 l/m 0 min 0 min 0,0 UV-I 23 W/m 0,0 km/h (0 Bft)
20.04.2014 07:26 11,8 C 10,6 C 89 % 1008,2 hPa 0,0 l/m 0 min 0 min 0,0 UV-I 21 W/m 0,0 km/h (0 Bft)
20.04.2014 07:28 11,8 C 10,6 C 89 % 1008,3 hPa 0,0 l/m 0 min 0 min 0,0 UV-I 21 W/m 0,0 km/h (0 Bft)
20.04.2014 07:30 11,8 C 10,6 C 89 % 1008,3 hPa 0,0 l/m 0 min 0 min 0,0 UV-I 23 W/m 5,1 km/h (1 Bft)
20.04.2014 07:32 11,8 C 10,6 C 89 % 1008,3 hPa 0,0 l/m 0 min 0 min 0,0 UV-I 25 W/m 0,0 km/h (0 Bft)
20.04.2014 07:34 11,8 C 10,6 C 89 % 1008,2 hPa 0,0 l/m 0 min 0 min 0,0 UV-I 26 W/m 0,0 km/h (0 Bft)
20.04.2014 07:36 11,8 C 10,6 C 88 % 1008,3 hPa 0,0 l/m 0 min 0 min 0,0 UV-I 28 W/m 0,0 km/h (0 Bft)
20.04.2014 07:38 11,9 C 10,6 C 88 % 1008,2 hPa 0,0 l/m 0 min 0 min 0,0 UV-I 32 W/m 0,0 km/h (0 Bft)
20.04.2014 07:40 11,9 C 10,6 C 88 % 1008,2 hPa 0,0 l/m 0 min 0 min 0,0 UV-I 33 W/m 0,0 km/h (0 Bft)
20.04.2014 07:42 11,9 C 10,6 C 88 % 1008,2 hPa 0,0 l/m 0 min 0 min 0,0 UV-I 37 W/m 2,6 km/h (1 Bft)
20.04.2014 07:44 11,9 C 10,6 C 88 % 1008,2 hPa 0,0 l/m 0 min 0 min 0,0 UV-I 37 W/m 0,0 km/h (0 Bft)
20.04.2014 07:46 11,9 C 10,6 C 88 % 1008,2 hPa 0,0 l/m 0 min 0 min 0,0 UV-I 37 W/m 0,0 km/h (0 Bft)
20.04.2014 07:48 11,9 C 10,6 C 88 % 1008,2 hPa 0,0 l/m 0 min 0 min 0,0 UV-I 39 W/m 0,0 km/h (0 Bft)
20.04.2014 07:50 11,9 C 10,6 C 88 % 1008,0 hPa 0,0 l/m 0 min 0 min 0,0 UV-I 39 W/m 0,0 km/h (0 Bft)
20.04.2014 07:52 11,9 C 10,6 C 88 % 1008,1 hPa 0,0 l/m 0 min 0 min 0,0 UV-I 40 W/m 2,6 km/h (1 Bft)
20.04.2014 07:54 12,0 C 10,6 C 88 % 1008,1 hPa 0,0 l/m 0 min 0 min 0,0 UV-I 40 W/m 0,0 km/h (0 Bft)
20.04.2014 07:56 12,0 C 11,1 C 88 % 1008,1 hPa 0,0 l/m 0 min 0 min 0,0 UV-I 44 W/m 0,0 km/h (0 Bft)
20.04.2014 07:58 12,0 C 11,1 C 88 % 1008,1 hPa 0,0 l/m 0 min 0 min 0,0 UV-I 47 W/m 2,6 km/h (1 Bft)
20.04.2014 08:00 12,1 C 11,1 C 88 % 1008,0 hPa 0,0 l/m 0 min 0 min 0,0 UV-I 51 W/m 5,1 km/h (1 Bft)
20.04.2014 08:02 12,1 C 11,1 C 88 % 1007,9 hPa 0,0 l/m 0 min 0 min 0,0 UV-I 56 W/m 0,0 km/h (0 Bft)
20.04.2014 08:06 12,2 C 11,1 C 88 % 1008,0 hPa 0,0 l/m 0 min 0 min 0,0 UV-I 62 W/m 5,1 km/h (1 Bft)
20.04.2014 08:08 12,2 C 11,1 C 88 % 1008,0 hPa 0,0 l/m 0 min 0 min 0,0 UV-I 63 W/m 7,7 km/h (2 Bft)
20.04.2014 08:10 12,3 C 11,1 C 88 % 1007,9 hPa 0,0 l/m 0 min 0 min 0,0 UV-I 69 W/m 7,7 km/h (2 Bft)
20.04.2014 08:12 12,3 C 11,1 C 88 % 1007,9 hPa 0,0 l/m 0 min 0 min 0,0 UV-I 74 W/m 10,3 km/h (2 Bft)
20.04.2014 08:14 12,3 C 11,1 C 88 % 1007,9 hPa 0,0 l/m 0 min 0 min 0,0 UV-I 84 W/m 7,7 km/h (2 Bft)
20.04.2014 08:16 12,4 C 11,7 C 87 % 1007,9 hPa 0,0 l/m 0 min 0 min 0,0 UV-I 88 W/m 0,0 km/h (0 Bft)
20.04.2014 08:18 12,4 C 11,7 C 87 % 1007,9 hPa 0,0 l/m 0 min 0 min 0,0 UV-I 95 W/m 7,7 km/h (2 Bft)
20.04.2014 08:20 12,4 C 11,7 C 87 % 1007,8 hPa 0,0 l/m 0 min 0 min 0,0 UV-I 107 W/m 7,7 km/h (2 Bft)
20.04.2014 08:22 12,5 C 11,7 C 87 % 1007,9 hPa 0,0 l/m 0 min 0 min 0,0 UV-I 114 W/m 2,6 km/h (1 Bft)
20.04.2014 08:24 12,6 C 11,7 C 87 % 1007,9 hPa 0,0 l/m 0 min 0 min 0,0 UV-I 113 W/m 0,0 km/h (0 Bft)
20.04.2014 08:26 12,6 C 11,7 C 87 % 1007,9 hPa 0,0 l/m 0 min 0 min 0,0 UV-I 105 W/m 7,7 km/h (2 Bft)
20.04.2014 08:28 12,7 C 11,7 C 87 % 1007,9 hPa 0,0 l/m 0 min 0 min 0,0 UV-I 98 W/m 0,0 km/h (0 Bft)
20.04.2014 08:30 12,7 C 11,7 C 86 % 1008,0 hPa 0,0 l/m 0 min 0 min 0,0 UV-I 98 W/m 0,0 km/h (0 Bft)
20.04.2014 08:32 12,7 C 11,7 C 86 % 1007,9 hPa 0,0 l/m 0 min 0 min 0,0 UV-I 98 W/m 0,0 km/h (0 Bft)
20.04.2014 08:34 12,8 C 11,7 C 86 % 1007,9 hPa 0,0 l/m 0 min 0 min 0,0 UV-I 97 W/m 5,1 km/h (1 Bft)
20.04.2014 08:36 12,8 C 11,7 C 86 % 1007,9 hPa 0,0 l/m 0 min 0 min 0,0 UV-I 95 W/m 0,0 km/h (0 Bft)
20.04.2014 08:38 12,8 C 12,2 C 86 % 1007,9 hPa 0,0 l/m 0 min 0 min 0,0 UV-I 97 W/m 2,6 km/h (1 Bft)
20.04.2014 08:40 12,8 C 12,2 C 86 % 1007,9 hPa 0,0 l/m 0 min 0 min 0,0 UV-I 98 W/m 10,3 km/h (2 Bft)
20.04.2014 08:42 12,8 C 12,2 C 86 % 1007,9 hPa 0,0 l/m 0 min 0 min 0,0 UV-I 100 W/m 5,1 km/h (1 Bft)
20.04.2014 08:44 12,8 C 12,2 C 86 % 1007,8 hPa 0,0 l/m 0 min 0 min 0,0 UV-I 98 W/m 7,7 km/h (2 Bft)
20.04.2014 08:46 12,8 C 12,2 C 86 % 1007,8 hPa 0,0 l/m 0 min 0 min 0,0 UV-I 100 W/m 0,0 km/h (0 Bft)
20.04.2014 08:48 12,8 C 12,2 C 86 % 1007,8 hPa 0,0 l/m 0 min 0 min 0,0 UV-I 98 W/m 7,7 km/h (2 Bft)
20.04.2014 08:50 12,9 C 12,2 C 86 % 1007,7 hPa 0,0 l/m 0 min 0 min 0,0 UV-I 97 W/m 0,0 km/h (0 Bft)
20.04.2014 08:52 12,9 C 12,2 C 86 % 1007,7 hPa 0,0 l/m 0 min 0 min 0,0 UV-I 98 W/m 5,1 km/h (1 Bft)
20.04.2014 08:54 12,9 C 12,2 C 85 % 1007,8 hPa 0,0 l/m 0 min 0 min 0,0 UV-I 105 W/m 7,7 km/h (2 Bft)
20.04.2014 08:56 12,9 C 12,2 C 85 % 1007,8 hPa 0,0 l/m 0 min 0 min 0,0 UV-I 114 W/m 7,7 km/h (2 Bft)
20.04.2014 08:58 12,9 C 12,2 C 85 % 1007,8 hPa 0,0 l/m 0 min 0 min 0,0 UV-I 118 W/m 2,6 km/h (1 Bft)
20.04.2014 09:00 13,0 C 12,2 C 85 % 1007,8 hPa 0,0 l/m 0 min 0 min 0,0 UV-I 116 W/m 5,1 km/h (1 Bft)
20.04.2014 09:02 13,0 C 12,2 C 85 % 1007,7 hPa 0,0 l/m 0 min 0 min 0,0 UV-I 118 W/m 7,7 km/h (2 Bft)
20.04.2014 09:06 13,1 C 12,2 C 85 % 1007,7 hPa 0,0 l/m 0 min 0 min 0,0 UV-I 132 W/m 7,7 km/h (2 Bft)
20.04.2014 09:08 13,1 C 12,2 C 85 % 1007,7 hPa 0,0 l/m 0 min 0 min 0,0 UV-I 139 W/m 5,1 km/h (1 Bft)
20.04.2014 09:10 13,1 C 12,2 C 85 % 1007,7 hPa 0,0 l/m 0 min 0 min 0,0 UV-I 148 W/m 7,7 km/h (2 Bft)
20.04.2014 09:12 13,2 C 12,8 C 84 % 1007,7 hPa 0,0 l/m 0 min 0 min 0,0 UV-I 165 W/m 7,7 km/h (2 Bft)
20.04.2014 09:14 13,2 C 12,8 C 84 % 1007,6 hPa 0,0 l/m 0 min 0 min 0,0 UV-I 167 W/m 0,0 km/h (0 Bft)
20.04.2014 09:16 13,3 C 12,8 C 84 % 1007,7 hPa 0,0 l/m 0 min 0 min 0,0 UV-I 167 W/m 7,7 km/h (2 Bft)
20.04.2014 09:18 13,3 C 12,8 C 84 % 1007,7 hPa 0,0 l/m 0 min 0 min 0,0 UV-I 171 W/m 5,1 km/h (1 Bft)
20.04.2014 09:20 13,4 C 12,8 C 84 % 1007,7 hPa 0,0 l/m 0 min 0 min 0,0 UV-I 178 W/m 7,7 km/h (2 Bft)
20.04.2014 09:22 13,5 C 12,8 C 84 % 1007,7 hPa 0,0 l/m 0 min 0 min 0,0 UV-I 186 W/m 10,3 km/h (2 Bft)
20.04.2014 09:24 13,6 C 12,8 C 83 % 1007,6 hPa 0,0 l/m 0 min 0 min 0,0 UV-I 197 W/m 7,7 km/h (2 Bft)
20.04.2014 09:26 13,6 C 13,3 C 83 % 1007,6 hPa 0,0 l/m 0 min 0 min 0,0 UV-I 204 W/m 7,7 km/h (2 Bft)
20.04.2014 09:28 13,7 C 13,3 C 83 % 1007,7 hPa 0,0 l/m 0 min 0 min 0,0 UV-I 216 W/m 7,7 km/h (2 Bft)
20.04.2014 09:30 13,9 C 13,3 C 83 % 1007,7 hPa 0,0 l/m 0 min 0 min 0,0 UV-I 227 W/m 5,1 km/h (1 Bft)
20.04.2014 09:32 14,1 C 13,3 C 83 % 1007,6 hPa 0,0 l/m 0 min 0 min 0,0 UV-I 234 W/m 0,0 km/h (0 Bft)
20.04.2014 09:34 14,2 C 13,9 C 83 % 1007,6 hPa 0,0 l/m 2 min 0 min 0,0 UV-I 272 W/m 0,0 km/h (0 Bft)
20.04.2014 09:36 14,4 C 14,4 C 83 % 1007,7 hPa 0,0 l/m 2 min 0 min 0,0 UV-I 536 W/m 0,0 km/h (0 Bft)
20.04.2014 09:38 14,9 C 15,0 C 82 % 1007,6 hPa 0,0 l/m 2 min 0 min 0,0 UV-I 524 W/m 2,6 km/h (1 Bft)
20.04.2014 09:40 15,2 C 15,6 C 81 % 1007,6 hPa 0,0 l/m 2 min 0 min 0,0 UV-I 466 W/m 7,7 km/h (2 Bft)
20.04.2014 09:42 15,4 C 16,1 C 80 % 1007,6 hPa 0,0 l/m 2 min 0 min 0,0 UV-I 462 W/m 7,7 km/h (2 Bft)
20.04.2014 09:44 15,6 C 17,2 C 78 % 1007,5 hPa 0,0 l/m 2 min 0 min 0,0 UV-I 459 W/m 12,9 km/h (3 Bft)
20.04.2014 09:46 15,8 C 17,8 C 78 % 1007,4 hPa 0,0 l/m 2 min 0 min 0,0 UV-I 457 W/m 10,3 km/h (2 Bft)
20.04.2014 09:48 16,0 C 18,3 C 76 % 1007,5 hPa 0,0 l/m 2 min 0 min 0,5 UV-I 450 W/m 18,0 km/h (3 Bft)
20.04.2014 09:50 16,0 C 17,8 C 76 % 1007,5 hPa 0,0 l/m 2 min 0 min 0,5 UV-I 404 W/m 10,3 km/h (2 Bft)
20.04.2014 09:52 16,2 C 17,2 C 76 % 1007,4 hPa 0,0 l/m 2 min 0 min 0,5 UV-I 399 W/m 7,7 km/h (2 Bft)
20.04.2014 09:54 16,3 C 17,8 C 75 % 1007,3 hPa 0,0 l/m 2 min 0 min 0,5 UV-I 417 W/m 28,3 km/h (4 Bft)
20.04.2014 09:56 16,3 C 17,2 C 74 % 1007,4 hPa 0,0 l/m 2 min 0 min 0,5 UV-I 411 W/m 15,4 km/h (3 Bft)
20.04.2014 09:58 16,3 C 16,7 C 75 % 1007,4 hPa 0,0 l/m 2 min 0 min 0,5 UV-I 417 W/m 2,6 km/h (1 Bft)
20.04.2014 10:00 16,4 C 16,7 C 74 % 1007,4 hPa 0,0 l/m 2 min 0 min 0,5 UV-I 418 W/m 12,9 km/h (3 Bft)
20.04.2014 10:02 16,4 C 17,2 C 74 % 1007,3 hPa 0,0 l/m 2 min 0 min 0,6 UV-I 410 W/m 12,9 km/h (3 Bft)
20.04.2014 10:06 16,6 C 17,2 C 73 % 1007,3 hPa 0,0 l/m 2 min 0 min 0,6 UV-I 443 W/m 12,9 km/h (3 Bft)
20.04.2014 10:08 16,5 C 16,7 C 72 % 1007,2 hPa 0,0 l/m 2 min 0 min 0,6 UV-I 443 W/m 12,9 km/h (3 Bft)
20.04.2014 10:10 16,5 C 16,1 C 73 % 1007,2 hPa 0,0 l/m 2 min 0 min 0,6 UV-I 443 W/m 7,7 km/h (2 Bft)
20.04.2014 10:12 16,4 C 15,6 C 72 % 1007,1 hPa 0,0 l/m 0 min 0 min 0,0 UV-I 169 W/m 7,7 km/h (2 Bft)
20.04.2014 10:14 16,3 C 15,6 C 73 % 1007,1 hPa 0,0 l/m 0 min 0 min 0,7 UV-I 169 W/m 15,4 km/h (3 Bft)
20.04.2014 10:16 16,3 C 15,6 C 73 % 1007,1 hPa 0,0 l/m 2 min 0 min 0,6 UV-I 480 W/m 12,9 km/h (3 Bft)
20.04.2014 10:18 16,3 C 15,6 C 74 % 1007,1 hPa 0,0 l/m 2 min 0 min 0,8 UV-I 397 W/m 7,7 km/h (2 Bft)
20.04.2014 10:20 16,3 C 15,6 C 73 % 1007,0 hPa 0,0 l/m 2 min 0 min 0,8 UV-I 464 W/m 10,3 km/h (2 Bft)
20.04.2014 10:22 16,4 C 16,1 C 73 % 1007,0 hPa 0,0 l/m 2 min 0 min 0,8 UV-I 468 W/m 10,3 km/h (2 Bft)
20.04.2014 10:24 16,5 C 16,1 C 73 % 1006,9 hPa 0,0 l/m 2 min 0 min 0,8 UV-I 473 W/m 10,3 km/h (2 Bft)
20.04.2014 10:26 16,6 C 16,1 C 72 % 1006,9 hPa 0,0 l/m 2 min 0 min 0,8 UV-I 475 W/m 12,9 km/h (3 Bft)
20.04.2014 10:28 16,7 C 16,1 C 72 % 1006,9 hPa 0,0 l/m 2 min 0 min 0,9 UV-I 480 W/m 12,9 km/h (3 Bft)
20.04.2014 10:30 16,9 C 16,1 C 72 % 1006,9 hPa 0,0 l/m 2 min 0 min 0,9 UV-I 485 W/m 0,0 km/h (0 Bft)
20.04.2014 10:32 17,0 C 16,7 C 72 % 1006,9 hPa 0,0 l/m 2 min 0 min 0,9 UV-I 490 W/m 2,6 km/h (1 Bft)
20.04.2014 10:34 17,1 C 16,7 C 71 % 1006,8 hPa 0,0 l/m 2 min 0 min 1,0 UV-I 501 W/m 2,6 km/h (1 Bft)
20.04.2014 10:36 17,1 C 16,7 C 71 % 1006,8 hPa 0,0 l/m 2 min 0 min 1,0 UV-I 503 W/m 2,6 km/h (1 Bft)
20.04.2014 10:38 17,1 C 16,7 C 71 % 1006,7 hPa 0,0 l/m 2 min 0 min 1,0 UV-I 513 W/m 10,3 km/h (2 Bft)
20.04.2014 10:40 17,1 C 16,1 C 71 % 1006,7 hPa 0,0 l/m 0 min 0 min 0,5 UV-I 213 W/m 10,3 km/h (2 Bft)
20.04.2014 10:42 17,0 C 16,1 C 70 % 1006,7 hPa 0,0 l/m 0 min 0 min 0,7 UV-I 309 W/m 15,4 km/h (3 Bft)
20.04.2014 10:44 16,9 C 16,1 C 71 % 1006,6 hPa 0,0 l/m 0 min 0 min 0,7 UV-I 329 W/m 10,3 km/h (2 Bft)
20.04.2014 10:46 16,8 C 16,1 C 71 % 1006,6 hPa 0,0 l/m 0 min 0 min 1,0 UV-I 329 W/m 10,3 km/h (2 Bft)
20.04.2014 10:48 16,8 C 16,1 C 71 % 1006,6 hPa 0,0 l/m 2 min 0 min 0,9 UV-I 385 W/m 10,3 km/h (2 Bft)
20.04.2014 10:50 16,9 C 16,1 C 72 % 1006,6 hPa 0,0 l/m 2 min 0 min 1,0 UV-I 374 W/m 10,3 km/h (2 Bft)
20.04.2014 10:52 17,1 C 16,7 C 71 % 1006,5 hPa 0,0 l/m 2 min 0 min 1,2 UV-I 547 W/m 7,7 km/h (2 Bft)
20.04.2014 10:54 17,3 C 16,7 C 70 % 1006,5 hPa 0,0 l/m 2 min 0 min 1,3 UV-I 547 W/m 10,3 km/h (2 Bft)
20.04.2014 10:56 17,4 C 17,2 C 70 % 1006,5 hPa 0,0 l/m 2 min 0 min 1,3 UV-I 548 W/m 15,4 km/h (3 Bft)
20.04.2014 10:58 17,6 C 17,2 C 69 % 1006,5 hPa 0,0 l/m 2 min 0 min 1,3 UV-I 550 W/m 7,7 km/h (2 Bft)
20.04.2014 11:00 17,8 C 17,2 C 69 % 1006,4 hPa 0,0 l/m 2 min 0 min 1,3 UV-I 557 W/m 7,7 km/h (2 Bft)
20.04.2014 11:02 18,1 C 17,2 C 67 % 1006,4 hPa 0,0 l/m 2 min 0 min 1,3 UV-I 557 W/m 12,9 km/h (3 Bft)
20.04.2014 11:06 18,5 C 17,8 C 67 % 1006,4 hPa 0,0 l/m 2 min 0 min 1,4 UV-I 566 W/m 15,4 km/h (3 Bft)
20.04.2014 11:08 18,6 C 17,8 C 66 % 1006,3 hPa 0,0 l/m 2 min 0 min 1,4 UV-I 566 W/m 10,3 km/h (2 Bft)
20.04.2014 11:10 18,6 C 17,8 C 66 % 1006,3 hPa 0,0 l/m 2 min 0 min 1,5 UV-I 571 W/m 12,9 km/h (3 Bft)
20.04.2014 11:12 18,6 C 17,8 C 65 % 1006,3 hPa 0,0 l/m 2 min 0 min 1,5 UV-I 577 W/m 23,2 km/h (4 Bft)
20.04.2014 11:14 18,7 C 17,8 C 65 % 1006,2 hPa 0,0 l/m 2 min 0 min 1,5 UV-I 578 W/m 18,0 km/h (3 Bft)
20.04.2014 11:16 18,7 C 17,8 C 65 % 1006,2 hPa 0,0 l/m 2 min 0 min 1,5 UV-I 587 W/m 12,9 km/h (3 Bft)
20.04.2014 11:18 18,7 C 18,3 C 65 % 1006,3 hPa 0,0 l/m 2 min 0 min 1,5 UV-I 582 W/m 12,9 km/h (3 Bft)
20.04.2014 11:20 18,8 C 18,3 C 64 % 1006,2 hPa 0,0 l/m 2 min 0 min 1,6 UV-I 591 W/m 12,9 km/h (3 Bft)
20.04.2014 11:22 18,9 C 18,3 C 64 % 1006,2 hPa 0,0 l/m 2 min 0 min 1,6 UV-I 599 W/m 12,9 km/h (3 Bft)
20.04.2014 11:24 18,9 C 18,3 C 64 % 1006,1 hPa 0,0 l/m 2 min 0 min 1,6 UV-I 599 W/m 12,9 km/h (3 Bft)
20.04.2014 11:26 19,2 C 18,3 C 65 % 1006,2 hPa 0,0 l/m 2 min 0 min 1,7 UV-I 601 W/m 10,3 km/h (2 Bft)
20.04.2014 11:28 19,3 C 18,3 C 63 % 1006,1 hPa 0,0 l/m 2 min 0 min 1,7 UV-I 608 W/m 18,0 km/h (3 Bft)
20.04.2014 11:30 19,4 C 18,9 C 63 % 1006,1 hPa 0,0 l/m 2 min 0 min 1,7 UV-I 613 W/m 12,9 km/h (3 Bft)
20.04.2014 11:32 19,5 C 18,9 C 62 % 1006,1 hPa 0,0 l/m 2 min 0 min 1,7 UV-I 613 W/m 15,4 km/h (3 Bft)
20.04.2014 11:34 19,4 C 18,9 C 62 % 1006,1 hPa 0,0 l/m 2 min 0 min 1,8 UV-I 615 W/m 20,6 km/h (4 Bft)
20.04.2014 11:36 19,4 C 18,9 C 62 % 1006,1 hPa 0,0 l/m 2 min 0 min 1,8 UV-I 613 W/m 15,4 km/h (3 Bft)
20.04.2014 11:38 19,5 C 18,9 C 63 % 1006,1 hPa 0,0 l/m 2 min 0 min 1,8 UV-I 621 W/m 10,3 km/h (2 Bft)
20.04.2014 11:40 19,7 C 18,9 C 62 % 1006,1 hPa 0,0 l/m 2 min 0 min 1,8 UV-I 621 W/m 30,9 km/h (5 Bft)
20.04.2014 11:42 19,8 C 18,9 C 62 % 1006,0 hPa 0,0 l/m 2 min 0 min 1,8 UV-I 622 W/m 2,6 km/h (1 Bft)
20.04.2014 11:44 19,9 C 19,4 C 61 % 1006,0 hPa 0,0 l/m 2 min 0 min 1,9 UV-I 628 W/m 20,6 km/h (4 Bft)
20.04.2014 11:46 19,9 C 19,4 C 62 % 1006,0 hPa 0,0 l/m 2 min 0 min 1,9 UV-I 635 W/m 12,9 km/h (3 Bft)
20.04.2014 11:48 20,1 C 19,4 C 61 % 1005,9 hPa 0,0 l/m 2 min 0 min 1,9 UV-I 640 W/m 20,6 km/h (4 Bft)
20.04.2014 11:50 20,2 C 19,4 C 60 % 1005,9 hPa 0,0 l/m 2 min 0 min 1,9 UV-I 466 W/m 25,7 km/h (4 Bft)
20.04.2014 11:52 20,2 C 19,4 C 61 % 1005,9 hPa 0,0 l/m 2 min 0 min 2,0 UV-I 650 W/m 12,9 km/h (3 Bft)
20.04.2014 11:54 20,2 C 19,4 C 61 % 1005,8 hPa 0,0 l/m 2 min 0 min 2,0 UV-I 645 W/m 10,3 km/h (2 Bft)
20.04.2014 11:56 20,3 C 19,4 C 61 % 1005,9 hPa 0,0 l/m 2 min 0 min 2,0 UV-I 650 W/m 12,9 km/h (3 Bft)
20.04.2014 11:58 20,4 C 19,4 C 60 % 1005,8 hPa 0,0 l/m 2 min 0 min 2,0 UV-I 656 W/m 18,0 km/h (3 Bft)
20.04.2014 12:00 20,4 C 19,4 C 59 % 1005,7 hPa 0,0 l/m 2 min 0 min 2,0 UV-I 650 W/m 20,6 km/h (4 Bft)
20.04.2014 12:02 20,4 C 19,4 C 59 % 1005,7 hPa 0,0 l/m 2 min 0 min 2,1 UV-I 666 W/m 23,2 km/h (4 Bft)
20.04.2014 12:06 20,4 C 20,0 C 59 % 1005,7 hPa 0,0 l/m 2 min 0 min 2,1 UV-I 664 W/m 18,0 km/h (3 Bft)
20.04.2014 12:08 20,4 C 20,0 C 59 % 1005,6 hPa 0,0 l/m 2 min 0 min 2,2 UV-I 682 W/m 12,9 km/h (3 Bft)
20.04.2014 12:10 20,4 C 20,0 C 58 % 1005,5 hPa 0,0 l/m 2 min 0 min 2,1 UV-I 664 W/m 23,2 km/h (4 Bft)
20.04.2014 12:12 20,4 C 20,0 C 58 % 1005,5 hPa 0,0 l/m 2 min 0 min 2,1 UV-I 696 W/m 23,2 km/h (4 Bft)
20.04.2014 12:14 20,5 C 19,4 C 59 % 1005,5 hPa 0,0 l/m 2 min 0 min 1,2 UV-I 520 W/m 15,4 km/h (3 Bft)
20.04.2014 12:16 20,3 C 19,4 C 58 % 1005,4 hPa 0,0 l/m 0 min 0 min 1,2 UV-I 232 W/m 12,9 km/h (3 Bft)
20.04.2014 12:18 20,2 C 19,4 C 60 % 1005,4 hPa 0,0 l/m 0 min 0 min 1,9 UV-I 232 W/m 18,0 km/h (3 Bft)
20.04.2014 12:20 20,1 C 19,4 C 59 % 1005,4 hPa 0,0 l/m 0 min 0 min 1,4 UV-I 232 W/m 18,0 km/h (3 Bft)
20.04.2014 12:22 20,1 C 19,4 C 60 % 1005,4 hPa 0,0 l/m 0 min 0 min 2,1 UV-I 250 W/m 23,2 km/h (4 Bft)
20.04.2014 12:24 20,1 C 20,0 C 59 % 1005,3 hPa 0,0 l/m 0 min 0 min 2,3 UV-I 250 W/m 18,0 km/h (3 Bft)
20.04.2014 12:26 20,2 C 20,0 C 59 % 1005,2 hPa 0,0 l/m 0 min 0 min 1,1 UV-I 216 W/m 10,3 km/h (2 Bft)
20.04.2014 12:28 20,2 C 19,4 C 60 % 1005,3 hPa 0,0 l/m 0 min 0 min 1,0 UV-I 258 W/m 20,6 km/h (4 Bft)
20.04.2014 12:30 20,1 C 19,4 C 59 % 1005,4 hPa 0,0 l/m 0 min 0 min 1,0 UV-I 246 W/m 10,3 km/h (2 Bft)
20.04.2014 12:32 19,9 C 18,9 C 59 % 1005,3 hPa 0,0 l/m 0 min 0 min 0,9 UV-I 244 W/m 15,4 km/h (3 Bft)
20.04.2014 12:34 19,7 C 18,9 C 59 % 1005,3 hPa 0,0 l/m 0 min 0 min 1,0 UV-I 288 W/m 18,0 km/h (3 Bft)
20.04.2014 12:36 19,6 C 18,9 C 61 % 1005,3 hPa 0,0 l/m 0 min 0 min 1,8 UV-I 357 W/m 18,0 km/h (3 Bft)
20.04.2014 12:38 19,8 C 19,4 C 61 % 1005,2 hPa 0,0 l/m 0 min 0 min 1,2 UV-I 313 W/m 10,3 km/h (2 Bft)
20.04.2014 12:40 19,8 C 19,4 C 60 % 1005,2 hPa 0,0 l/m 0 min 0 min 1,0 UV-I 274 W/m 18,0 km/h (3 Bft)
20.04.2014 12:42 19,9 C 19,4 C 61 % 1005,2 hPa 0,0 l/m 0 min 0 min 2,1 UV-I 294 W/m 12,9 km/h (3 Bft)
20.04.2014 12:44 20,1 C 20,6 C 61 % 1005,2 hPa 0,0 l/m 2 min 0 min 2,2 UV-I 633 W/m 18,0 km/h (3 Bft)
20.04.2014 12:46 20,3 C 20,6 C 60 % 1005,1 hPa 0,0 l/m 2 min 0 min 1,5 UV-I 633 W/m 18,0 km/h (3 Bft)
20.04.2014 12:48 20,6 C 21,1 C 59 % 1005,2 hPa 0,0 l/m 2 min 0 min 2,2 UV-I 872 W/m 12,9 km/h (3 Bft)
20.04.2014 12:50 20,8 C 21,1 C 59 % 1005,2 hPa 0,0 l/m 2 min 0 min 1,9 UV-I 851 W/m 36,0 km/h (5 Bft)
20.04.2014 12:52 20,9 C 21,1 C 57 % 1005,1 hPa 0,0 l/m 2 min 0 min 1,7 UV-I 884 W/m 10,3 km/h (2 Bft)
20.04.2014 12:54 20,9 C 21,1 C 57 % 1005,1 hPa 0,0 l/m 0 min 0 min 1,3 UV-I 392 W/m 20,6 km/h (4 Bft)
20.04.2014 12:56 20,8 C 20,6 C 57 % 1005,2 hPa 0,0 l/m 0 min 0 min 1,4 UV-I 304 W/m 20,6 km/h (4 Bft)
20.04.2014 12:58 20,7 C 20,6 C 57 % 1005,1 hPa 0,0 l/m 0 min 0 min 1,1 UV-I 186 W/m 20,6 km/h (4 Bft)
20.04.2014 13:00 20,5 C 19,4 C 57 % 1005,1 hPa 0,0 l/m 0 min 0 min 0,9 UV-I 158 W/m 28,3 km/h (4 Bft)
20.04.2014 13:02 20,2 C 18,9 C 58 % 1005,1 hPa 0,0 l/m 0 min 0 min 0,8 UV-I 155 W/m 12,9 km/h (3 Bft)
20.04.2014 13:06 20,0 C 18,9 C 59 % 1005,0 hPa 0,0 l/m 0 min 0 min 1,1 UV-I 230 W/m 20,6 km/h (4 Bft)
20.04.2014 13:08 20,2 C 20,0 C 60 % 1005,0 hPa 0,0 l/m 2 min 0 min 1,3 UV-I 858 W/m 25,7 km/h (4 Bft)
20.04.2014 13:10 20,5 C 20,0 C 58 % 1005,0 hPa 0,0 l/m 0 min 0 min 1,2 UV-I 230 W/m 18,0 km/h (3 Bft)
20.04.2014 13:12 20,6 C 19,4 C 58 % 1005,0 hPa 0,0 l/m 0 min 0 min 1,1 UV-I 199 W/m 23,2 km/h (4 Bft)
20.04.2014 13:14 20,4 C 19,4 C 58 % 1005,0 hPa 0,0 l/m 0 min 0 min 1,0 UV-I 199 W/m 10,3 km/h (2 Bft)
20.04.2014 13:16 20,3 C 19,4 C 59 % 1005,0 hPa 0,0 l/m 0 min 0 min 1,0 UV-I 199 W/m 12,9 km/h (3 Bft)
20.04.2014 13:18 20,3 C 18,9 C 59 % 1005,1 hPa 0,0 l/m 0 min 0 min 0,8 UV-I 165 W/m 7,7 km/h (2 Bft)
20.04.2014 13:20 20,2 C 18,9 C 58 % 1005,0 hPa 0,0 l/m 0 min 0 min 0,9 UV-I 179 W/m 18,0 km/h (3 Bft)
20.04.2014 13:22 20,1 C 18,9 C 59 % 1005,0 hPa 0,0 l/m 0 min 0 min 0,9 UV-I 192 W/m 15,4 km/h (3 Bft)
20.04.2014 13:24 20,0 C 18,9 C 58 % 1005,0 hPa 0,0 l/m 0 min 0 min 0,9 UV-I 199 W/m 18,0 km/h (3 Bft)
20.04.2014 13:26 19,9 C 18,9 C 58 % 1005,0 hPa 0,0 l/m 0 min 0 min 0,8 UV-I 223 W/m 18,0 km/h (3 Bft)
20.04.2014 13:28 20,0 C 18,9 C 59 % 1004,9 hPa 0,0 l/m 0 min 0 min 0,9 UV-I 251 W/m 15,4 km/h (3 Bft)
20.04.2014 13:30 20,2 C 19,4 C 59 % 1004,9 hPa 0,0 l/m 0 min 0 min 1,1 UV-I 251 W/m 12,9 km/h (3 Bft)
20.04.2014 13:32 20,4 C 20,0 C 59 % 1005,0 hPa 0,0 l/m 2 min 0 min 1,2 UV-I 645 W/m 7,7 km/h (2 Bft)
20.04.2014 13:34 20,7 C 20,0 C 57 % 1004,9 hPa 0,0 l/m 0 min 0 min 1,3 UV-I 339 W/m 33,5 km/h (5 Bft)
20.04.2014 13:36 20,8 C 20,6 C 58 % 1004,9 hPa 0,0 l/m 0 min 0 min 1,5 UV-I 322 W/m 25,7 km/h (4 Bft)
20.04.2014 13:38 21,1 C 20,6 C 58 % 1004,9 hPa 0,0 l/m 0 min 0 min 1,2 UV-I 380 W/m 18,0 km/h (3 Bft)
20.04.2014 13:40 21,2 C 20,6 C 53 % 1005,0 hPa 0,0 l/m 2 min 0 min 1,5 UV-I 884 W/m 23,2 km/h (4 Bft)
20.04.2014 13:42 21,6 C 21,1 C 53 % 1005,0 hPa 0,0 l/m 2 min 0 min 1,8 UV-I 918 W/m 20,6 km/h (4 Bft)
20.04.2014 13:44 22,1 C 21,7 C 52 % 1004,9 hPa 0,0 l/m 2 min 0 min 2,2 UV-I 928 W/m 20,6 km/h (4 Bft)
20.04.2014 13:46 22,3 C 21,7 C 50 % 1004,9 hPa 0,0 l/m 2 min 0 min 2,5 UV-I 925 W/m 30,9 km/h (5 Bft)
20.04.2014 13:48 22,4 C 21,7 C 48 % 1004,9 hPa 0,0 l/m 2 min 0 min 1,5 UV-I 926 W/m 23,2 km/h (4 Bft)
20.04.2014 13:50 22,3 C 21,7 C 49 % 1004,9 hPa 0,0 l/m 2 min 0 min 2,8 UV-I 900 W/m 28,3 km/h (4 Bft)
20.04.2014 13:52 22,5 C 22,2 C 48 % 1005,0 hPa 0,0 l/m 2 min 0 min 3,1 UV-I 891 W/m 28,3 km/h (4 Bft)
20.04.2014 13:54 22,6 C 21,7 C 48 % 1004,9 hPa 0,0 l/m 2 min 0 min 3,0 UV-I 851 W/m 20,6 km/h (4 Bft)
20.04.2014 13:56 22,8 C 22,2 C 49 % 1004,9 hPa 0,0 l/m 2 min 0 min 2,8 UV-I 835 W/m 12,9 km/h (3 Bft)
20.04.2014 13:58 22,9 C 22,2 C 47 % 1004,9 hPa 0,0 l/m 2 min 0 min 2,9 UV-I 835 W/m 28,3 km/h (4 Bft)
20.04.2014 14:00 22,9 C 21,7 C 48 % 1004,9 hPa 0,0 l/m 2 min 0 min 2,9 UV-I 802 W/m 28,3 km/h (4 Bft)
20.04.2014 14:02 22,9 C 21,7 C 48 % 1004,9 hPa 0,0 l/m 2 min 0 min 2,9 UV-I 821 W/m 28,3 km/h (4 Bft)
20.04.2014 14:06 22,9 C 21,7 C 48 % 1004,8 hPa 0,0 l/m 2 min 0 min 3,0 UV-I 814 W/m 20,6 km/h (4 Bft)
20.04.2014 14:08 22,9 C 22,2 C 47 % 1004,9 hPa 0,0 l/m 2 min 0 min 3,0 UV-I 803 W/m 28,3 km/h (4 Bft)
20.04.2014 14:10 22,9 C 22,2 C 48 % 1004,8 hPa 0,0 l/m 2 min 0 min 3,0 UV-I 802 W/m 28,3 km/h (4 Bft)
20.04.2014 14:12 22,8 C 22,2 C 49 % 1004,9 hPa 0,0 l/m 2 min 0 min 3,0 UV-I 798 W/m 30,9 km/h (5 Bft)
20.04.2014 14:14 22,8 C 21,7 C 48 % 1005,0 hPa 0,0 l/m 2 min 0 min 2,9 UV-I 796 W/m 41,2 km/h (6 Bft)
20.04.2014 14:16 22,7 C 21,7 C 47 % 1004,9 hPa 0,0 l/m 2 min 0 min 2,9 UV-I 789 W/m 20,6 km/h (4 Bft)
20.04.2014 14:18 22,7 C 21,7 C 48 % 1005,0 hPa 0,0 l/m 2 min 0 min 2,9 UV-I 784 W/m 23,2 km/h (4 Bft)
20.04.2014 14:20 22,7 C 22,2 C 48 % 1004,9 hPa 0,0 l/m 2 min 0 min 2,8 UV-I 780 W/m 25,7 km/h (4 Bft)
20.04.2014 14:22 22,7 C 21,7 C 47 % 1004,9 hPa 0,0 l/m 2 min 0 min 1,8 UV-I 795 W/m 30,9 km/h (5 Bft)
20.04.2014 14:24 22,6 C 21,7 C 47 % 1004,9 hPa 0,0 l/m 2 min 0 min 2,8 UV-I 814 W/m 18,0 km/h (3 Bft)
20.04.2014 14:26 22,9 C 22,2 C 50 % 1004,8 hPa 0,0 l/m 2 min 0 min 2,9 UV-I 831 W/m 23,2 km/h (4 Bft)
20.04.2014 14:28 23,3 C 22,8 C 48 % 1004,9 hPa 0,0 l/m 2 min 0 min 2,9 UV-I 830 W/m 20,6 km/h (4 Bft)
20.04.2014 14:30 23,4 C 22,8 C 46 % 1004,9 hPa 0,0 l/m 2 min 0 min 2,8 UV-I 830 W/m 20,6 km/h (4 Bft)
20.04.2014 14:32 23,6 C 23,3 C 47 % 1004,8 hPa 0,0 l/m 2 min 0 min 2,8 UV-I 835 W/m 36,0 km/h (5 Bft)
20.04.2014 14:34 23,6 C 23,3 C 45 % 1004,9 hPa 0,0 l/m 2 min 0 min 2,9 UV-I 830 W/m 28,3 km/h (4 Bft)
20.04.2014 14:36 23,6 C 22,8 C 45 % 1004,8 hPa 0,0 l/m 2 min 0 min 2,9 UV-I 789 W/m 23,2 km/h (4 Bft)
20.04.2014 14:38 23,5 C 22,8 C 45 % 1004,9 hPa 0,0 l/m 2 min 0 min 2,8 UV-I 765 W/m 33,5 km/h (5 Bft)
20.04.2014 14:40 23,3 C 22,8 C 47 % 1004,8 hPa 0,0 l/m 2 min 0 min 2,8 UV-I 765 W/m 20,6 km/h (4 Bft)
20.04.2014 14:42 23,3 C 22,2 C 46 % 1004,8 hPa 0,0 l/m 2 min 0 min 2,8 UV-I 765 W/m 28,3 km/h (4 Bft)
20.04.2014 14:44 23,2 C 22,2 C 47 % 1004,8 hPa 0,0 l/m 2 min 0 min 2,8 UV-I 765 W/m 28,3 km/h (4 Bft)
20.04.2014 14:46 23,1 C 22,2 C 45 % 1004,7 hPa 0,0 l/m 2 min 0 min 2,7 UV-I 756 W/m 18,0 km/h (3 Bft)
20.04.2014 14:48 23,1 C 22,2 C 46 % 1004,7 hPa 0,0 l/m 2 min 0 min 2,7 UV-I 763 W/m 23,2 km/h (4 Bft)
20.04.2014 14:50 23,1 C 22,2 C 47 % 1004,7 hPa 0,0 l/m 2 min 0 min 2,7 UV-I 780 W/m 20,6 km/h (4 Bft)
20.04.2014 14:52 23,2 C 22,2 C 45 % 1004,7 hPa 0,0 l/m 2 min 0 min 1,5 UV-I 798 W/m 18,0 km/h (3 Bft)
20.04.2014 14:54 23,0 C 21,7 C 45 % 1004,7 hPa 0,0 l/m 2 min 0 min 1,4 UV-I 798 W/m 23,2 km/h (4 Bft)
20.04.2014 14:56 22,7 C 21,1 C 46 % 1004,7 hPa 0,0 l/m 0 min 0 min 1,4 UV-I 176 W/m 25,7 km/h (4 Bft)
20.04.2014 14:58 22,3 C 20,6 C 46 % 1004,7 hPa 0,0 l/m 0 min 0 min 1,4 UV-I 185 W/m 25,7 km/h (4 Bft)
20.04.2014 15:00 21,9 C 20,6 C 46 % 1004,7 hPa 0,0 l/m 0 min 0 min 2,2 UV-I 188 W/m 18,0 km/h (3 Bft)
20.04.2014 15:02 21,7 C 20,6 C 47 % 1004,7 hPa 0,0 l/m 2 min 0 min 2,4 UV-I 751 W/m 33,5 km/h (5 Bft)
20.04.2014 15:06 22,1 C 21,1 C 47 % 1004,6 hPa 0,0 l/m 2 min 0 min 1,3 UV-I 640 W/m 18,0 km/h (3 Bft)
20.04.2014 15:08 22,0 C 20,6 C 46 % 1004,5 hPa 0,0 l/m 0 min 0 min 1,3 UV-I 163 W/m 10,3 km/h (2 Bft)
20.04.2014 15:10 21,9 C 20,6 C 46 % 1004,6 hPa 0,0 l/m 2 min 0 min 2,4 UV-I 714 W/m 25,7 km/h (4 Bft)
20.04.2014 15:12 22,0 C 21,1 C 47 % 1004,6 hPa 0,0 l/m 2 min 0 min 2,4 UV-I 705 W/m 15,4 km/h (3 Bft)
20.04.2014 15:14 22,2 C 21,1 C 47 % 1004,4 hPa 0,0 l/m 2 min 0 min 2,3 UV-I 684 W/m 18,0 km/h (3 Bft)
20.04.2014 15:16 22,5 C 21,1 C 46 % 1004,4 hPa 0,0 l/m 2 min 0 min 2,3 UV-I 694 W/m 15,4 km/h (3 Bft)
20.04.2014 15:18 22,7 C 21,7 C 47 % 1004,4 hPa 0,0 l/m 2 min 0 min 2,4 UV-I 696 W/m 20,6 km/h (4 Bft)
20.04.2014 15:20 22,8 C 21,7 C 46 % 1004,4 hPa 0,0 l/m 2 min 0 min 2,3 UV-I 710 W/m 15,4 km/h (3 Bft)
20.04.2014 15:22 22,9 C 21,7 C 45 % 1004,5 hPa 0,0 l/m 2 min 0 min 2,3 UV-I 693 W/m 23,2 km/h (4 Bft)
20.04.2014 15:24 23,0 C 21,7 C 45 % 1004,3 hPa 0,0 l/m 2 min 0 min 2,3 UV-I 696 W/m 12,9 km/h (3 Bft)
20.04.2014 15:26 23,1 C 21,7 C 44 % 1004,3 hPa 0,0 l/m 2 min 0 min 2,3 UV-I 689 W/m 10,3 km/h (2 Bft)
20.04.2014 15:28 23,2 C 22,2 C 46 % 1004,3 hPa 0,0 l/m 2 min 0 min 2,3 UV-I 675 W/m 15,4 km/h (3 Bft)
20.04.2014 15:30 23,3 C 22,2 C 45 % 1004,3 hPa 0,0 l/m 2 min 0 min 2,2 UV-I 670 W/m 15,4 km/h (3 Bft)
20.04.2014 15:32 23,3 C 22,2 C 45 % 1004,3 hPa 0,0 l/m 2 min 0 min 2,3 UV-I 677 W/m 15,4 km/h (3 Bft)
20.04.2014 15:34 23,3 C 21,7 C 43 % 1004,2 hPa 0,0 l/m 2 min 0 min 2,3 UV-I 675 W/m 18,0 km/h (3 Bft)
20.04.2014 15:36 23,1 C 21,7 C 44 % 1004,2 hPa 0,0 l/m 2 min 0 min 2,3 UV-I 675 W/m 18,0 km/h (3 Bft)
20.04.2014 15:38 23,1 C 21,7 C 46 % 1004,2 hPa 0,0 l/m 2 min 0 min 2,3 UV-I 675 W/m 20,6 km/h (4 Bft)
20.04.2014 15:40 23,3 C 22,2 C 45 % 1004,2 hPa 0,0 l/m 2 min 0 min 2,2 UV-I 599 W/m 25,7 km/h (4 Bft)
20.04.2014 15:42 23,3 C 22,2 C 45 % 1004,2 hPa 0,0 l/m 2 min 0 min 2,1 UV-I 587 W/m 23,2 km/h (4 Bft)
20.04.2014 15:44 23,2 C 22,2 C 44 % 1004,3 hPa 0,0 l/m 2 min 0 min 2,1 UV-I 633 W/m 20,6 km/h (4 Bft)
20.04.2014 15:46 23,1 C 21,7 C 44 % 1004,3 hPa 0,0 l/m 2 min 0 min 2,1 UV-I 666 W/m 23,2 km/h (4 Bft)
20.04.2014 15:48 23,1 C 22,2 C 45 % 1004,2 hPa 0,0 l/m 2 min 0 min 2,1 UV-I 668 W/m 20,6 km/h (4 Bft)
20.04.2014 15:50 23,2 C 22,2 C 44 % 1004,1 hPa 0,0 l/m 2 min 0 min 2,1 UV-I 686 W/m 12,9 km/h (3 Bft)
20.04.2014 15:52 23,4 C 22,2 C 44 % 1004,1 hPa 0,0 l/m 2 min 0 min 2,1 UV-I 684 W/m 20,6 km/h (4 Bft)
20.04.2014 15:54 23,5 C 22,2 C 43 % 1004,0 hPa 0,0 l/m 2 min 0 min 2,1 UV-I 689 W/m 20,6 km/h (4 Bft)
20.04.2014 15:56 23,6 C 22,2 C 42 % 1004,1 hPa 0,0 l/m 2 min 0 min 1,8 UV-I 677 W/m 25,7 km/h (4 Bft)
20.04.2014 15:58 23,4 C 22,2 C 42 % 1004,1 hPa 0,0 l/m 2 min 0 min 2,0 UV-I 659 W/m 23,2 km/h (4 Bft)
20.04.2014 16:00 23,2 C 22,2 C 43 % 1004,1 hPa 0,0 l/m 2 min 0 min 1,9 UV-I 659 W/m 25,7 km/h (4 Bft)
20.04.2014 16:02 23,1 C 22,2 C 44 % 1004,1 hPa 0,0 l/m 2 min 0 min 2,0 UV-I 652 W/m 28,3 km/h (4 Bft)
20.04.2014 16:06 23,3 C 22,2 C 45 % 1004,0 hPa 0,0 l/m 2 min 0 min 1,9 UV-I 642 W/m 20,6 km/h (4 Bft)
20.04.2014 16:08 23,4 C 22,2 C 45 % 1004,1 hPa 0,0 l/m 2 min 0 min 1,9 UV-I 668 W/m 23,2 km/h (4 Bft)
20.04.2014 16:10 23,3 C 22,2 C 44 % 1004,0 hPa 0,0 l/m 0 min 0 min 1,3 UV-I 218 W/m 25,7 km/h (4 Bft)
20.04.2014 16:12 23,0 C 22,2 C 44 % 1004,0 hPa 0,0 l/m 2 min 0 min 1,9 UV-I 693 W/m 25,7 km/h (4 Bft)
20.04.2014 16:14 23,1 C 22,8 C 45 % 1004,0 hPa 0,0 l/m 2 min 0 min 1,8 UV-I 700 W/m 15,4 km/h (3 Bft)
20.04.2014 16:16 23,3 C 23,3 C 44 % 1004,0 hPa 0,0 l/m 2 min 0 min 1,8 UV-I 691 W/m 15,4 km/h (3 Bft)
20.04.2014 16:18 23,5 C 23,3 C 46 % 1004,0 hPa 0,0 l/m 2 min 0 min 1,8 UV-I 696 W/m 12,9 km/h (3 Bft)
20.04.2014 16:20 23,8 C 23,9 C 45 % 1004,0 hPa 0,0 l/m 2 min 0 min 1,8 UV-I 710 W/m 12,9 km/h (3 Bft)
20.04.2014 16:22 23,9 C 23,9 C 44 % 1003,9 hPa 0,0 l/m 2 min 0 min 1,8 UV-I 693 W/m 18,0 km/h (3 Bft)
20.04.2014 16:24 23,7 C 23,9 C 42 % 1003,9 hPa 0,0 l/m 2 min 0 min 1,7 UV-I 673 W/m 30,9 km/h (5 Bft)
20.04.2014 16:26 23,5 C 23,3 C 42 % 1003,9 hPa 0,0 l/m 2 min 0 min 1,7 UV-I 643 W/m 20,6 km/h (4 Bft)
20.04.2014 16:28 23,4 C 22,8 C 43 % 1004,0 hPa 0,0 l/m 2 min 0 min 1,1 UV-I 643 W/m 36,0 km/h (5 Bft)
20.04.2014 16:30 23,1 C 21,7 C 45 % 1004,0 hPa 0,0 l/m 0 min 0 min 1,0 UV-I 169 W/m 18,0 km/h (3 Bft)
20.04.2014 16:32 22,7 C 21,1 C 43 % 1004,0 hPa 0,0 l/m 0 min 0 min 1,0 UV-I 183 W/m 20,6 km/h (4 Bft)
20.04.2014 16:34 22,4 C 20,6 C 44 % 1004,0 hPa 0,0 l/m 0 min 0 min 1,0 UV-I 202 W/m 28,3 km/h (4 Bft)
20.04.2014 16:36 22,1 C 20,6 C 45 % 1004,0 hPa 0,0 l/m 0 min 0 min 1,4 UV-I 274 W/m 18,0 km/h (3 Bft)
20.04.2014 16:38 22,1 C 21,1 C 45 % 1004,1 hPa 0,0 l/m 0 min 0 min 1,5 UV-I 274 W/m 20,6 km/h (4 Bft)
20.04.2014 16:40 22,3 C 21,7 C 46 % 1004,0 hPa 0,0 l/m 2 min 0 min 1,4 UV-I 612 W/m 20,6 km/h (4 Bft)
20.04.2014 16:42 22,6 C 22,2 C 45 % 1004,1 hPa 0,0 l/m 2 min 0 min 1,3 UV-I 657 W/m 12,9 km/h (3 Bft)
20.04.2014 16:44 22,8 C 22,2 C 45 % 1004,0 hPa 0,0 l/m 2 min 0 min 1,3 UV-I 631 W/m 18,0 km/h (3 Bft)
20.04.2014 16:46 22,9 C 22,2 C 45 % 1003,9 hPa 0,0 l/m 2 min 0 min 0,9 UV-I 636 W/m 20,6 km/h (4 Bft)
20.04.2014 16:48 22,8 C 22,2 C 45 % 1003,9 hPa 0,0 l/m 0 min 0 min 0,9 UV-I 272 W/m 20,6 km/h (4 Bft)
20.04.2014 16:50 22,7 C 22,2 C 45 % 1003,9 hPa 0,0 l/m 2 min 0 min 1,3 UV-I 642 W/m 18,0 km/h (3 Bft)
20.04.2014 16:52 22,8 C 22,2 C 46 % 1003,7 hPa 0,0 l/m 2 min 0 min 1,2 UV-I 563 W/m 25,7 km/h (4 Bft)
20.04.2014 16:54 23,0 C 22,2 C 45 % 1003,8 hPa 0,0 l/m 2 min 0 min 0,9 UV-I 445 W/m 12,9 km/h (3 Bft)
20.04.2014 16:56 22,9 C 21,7 C 45 % 1003,8 hPa 0,0 l/m 0 min 0 min 0,9 UV-I 287 W/m 23,2 km/h (4 Bft)
20.04.2014 16:58 22,6 C 21,1 C 45 % 1003,7 hPa 0,0 l/m 0 min 0 min 0,8 UV-I 176 W/m 23,2 km/h (4 Bft)
20.04.2014 17:00 22,4 C 21,1 C 46 % 1003,8 hPa 0,0 l/m 0 min 0 min 0,9 UV-I 185 W/m 15,4 km/h (3 Bft)
20.04.2014 17:02 22,2 C 20,6 C 45 % 1003,8 hPa 0,0 l/m 0 min 0 min 0,7 UV-I 167 W/m 23,2 km/h (4 Bft)
20.04.2014 17:06 22,1 C 20,6 C 45 % 1003,9 hPa 0,0 l/m 2 min 0 min 0,8 UV-I 367 W/m 18,0 km/h (3 Bft)
20.04.2014 17:08 22,1 C 20,6 C 45 % 1003,9 hPa 0,0 l/m 2 min 0 min 0,8 UV-I 522 W/m 18,0 km/h (3 Bft)
20.04.2014 17:10 22,1 C 20,6 C 46 % 1003,8 hPa 0,0 l/m 0 min 0 min 0,6 UV-I 181 W/m 12,9 km/h (3 Bft)
20.04.2014 17:12 22,2 C 20,6 C 45 % 1003,8 hPa 0,0 l/m 0 min 0 min 0,6 UV-I 183 W/m 7,7 km/h (2 Bft)
20.04.2014 17:14 22,1 C 20,6 C 46 % 1003,8 hPa 0,0 l/m 0 min 0 min 0,5 UV-I 167 W/m 10,3 km/h (2 Bft)
20.04.2014 17:16 21,9 C 20,6 C 46 % 1003,7 hPa 0,0 l/m 0 min 0 min 0,5 UV-I 148 W/m 15,4 km/h (3 Bft)
20.04.2014 17:18 21,7 C 20,6 C 46 % 1003,7 hPa 0,0 l/m 0 min 0 min 0,0 UV-I 141 W/m 20,6 km/h (4 Bft)
20.04.2014 17:20 21,6 C 20,0 C 45 % 1003,8 hPa 0,0 l/m 0 min 0 min 0,0 UV-I 141 W/m 12,9 km/h (3 Bft)
20.04.2014 17:22 21,4 C 20,0 C 46 % 1003,8 hPa 0,0 l/m 0 min 0 min 0,0 UV-I 141 W/m 20,6 km/h (4 Bft)
20.04.2014 17:24 21,4 C 20,0 C 46 % 1003,9 hPa 0,0 l/m 0 min 0 min 0,6 UV-I 146 W/m 18,0 km/h (3 Bft)
20.04.2014 17:26 21,4 C 20,0 C 46 % 1003,8 hPa 0,0 l/m 0 min 0 min 0,6 UV-I 137 W/m 28,3 km/h (4 Bft)
20.04.2014 17:28 21,4 C 20,0 C 46 % 1003,8 hPa 0,0 l/m 2 min 0 min 0,7 UV-I 376 W/m 25,7 km/h (4 Bft)
20.04.2014 17:30 21,6 C 20,6 C 46 % 1003,7 hPa 0,0 l/m 2 min 0 min 0,8 UV-I 445 W/m 12,9 km/h (3 Bft)
20.04.2014 17:32 21,8 C 20,6 C 46 % 1003,8 hPa 0,0 l/m 2 min 0 min 0,8 UV-I 424 W/m 7,7 km/h (2 Bft)
20.04.2014 17:34 22,1 C 20,6 C 45 % 1003,9 hPa 0,0 l/m 2 min 0 min 0,8 UV-I 408 W/m 12,9 km/h (3 Bft)
20.04.2014 17:36 22,2 C 20,6 C 46 % 1003,9 hPa 0,0 l/m 2 min 0 min 0,8 UV-I 404 W/m 15,4 km/h (3 Bft)
20.04.2014 17:38 22,3 C 20,0 C 45 % 1003,8 hPa 0,0 l/m 2 min 0 min 0,8 UV-I 403 W/m 10,3 km/h (2 Bft)
20.04.2014 17:40 22,2 C 20,0 C 45 % 1003,8 hPa 0,0 l/m 2 min 0 min 0,8 UV-I 401 W/m 25,7 km/h (4 Bft)
20.04.2014 17:42 22,2 C 20,0 C 46 % 1003,8 hPa 0,0 l/m 2 min 0 min 0,8 UV-I 424 W/m 20,6 km/h (4 Bft)
20.04.2014 17:44 22,2 C 20,0 C 46 % 1003,8 hPa 0,0 l/m 2 min 0 min 0,8 UV-I 443 W/m 12,9 km/h (3 Bft)
20.04.2014 17:46 22,3 C 20,6 C 45 % 1003,8 hPa 0,0 l/m 2 min 0 min 0,8 UV-I 459 W/m 12,9 km/h (3 Bft)
20.04.2014 17:48 22,4 C 20,6 C 45 % 1003,8 hPa 0,0 l/m 2 min 0 min 0,7 UV-I 446 W/m 12,9 km/h (3 Bft)
20.04.2014 17:50 22,6 C 20,6 C 46 % 1003,8 hPa 0,0 l/m 2 min 0 min 0,8 UV-I 309 W/m 12,9 km/h (3 Bft)
20.04.2014 17:52 22,7 C 21,1 C 44 % 1003,9 hPa 0,0 l/m 2 min 0 min 0,8 UV-I 362 W/m 18,0 km/h (3 Bft)
20.04.2014 17:54 22,6 C 20,6 C 43 % 1003,9 hPa 0,0 l/m 2 min 0 min 0,8 UV-I 362 W/m 23,2 km/h (4 Bft)
20.04.2014 17:56 22,4 C 20,6 C 44 % 1003,8 hPa 0,0 l/m 2 min 0 min 0,6 UV-I 399 W/m 20,6 km/h (4 Bft)
20.04.2014 17:58 22,4 C 20,6 C 44 % 1003,8 hPa 0,0 l/m 0 min 0 min 0,6 UV-I 153 W/m 25,7 km/h (4 Bft)
20.04.2014 18:00 22,2 C 20,6 C 44 % 1003,8 hPa 0,0 l/m 0 min 0 min 0,5 UV-I 165 W/m 23,2 km/h (4 Bft)
20.04.2014 18:02 22,1 C 20,6 C 44 % 1003,8 hPa 0,0 l/m 0 min 0 min 0,5 UV-I 118 W/m 10,3 km/h (2 Bft)
20.04.2014 18:06 21,9 C 20,0 C 45 % 1003,8 hPa 0,0 l/m 0 min 0 min 0,0 UV-I 90 W/m 28,3 km/h (4 Bft)
20.04.2014 18:08 21,7 C 20,0 C 45 % 1003,8 hPa 0,0 l/m 0 min 0 min 0,0 UV-I 81 W/m 20,6 km/h (4 Bft)
20.04.2014 18:10 21,5 C 19,4 C 45 % 1003,9 hPa 0,0 l/m 0 min 0 min 0,0 UV-I 79 W/m 25,7 km/h (4 Bft)
20.04.2014 18:12 21,3 C 19,4 C 46 % 1003,9 hPa 0,0 l/m 0 min 0 min 0,0 UV-I 83 W/m 10,3 km/h (2 Bft)
20.04.2014 18:14 21,1 C 19,4 C 47 % 1003,9 hPa 0,0 l/m 0 min 0 min 0,0 UV-I 83 W/m 18,0 km/h (3 Bft)
20.04.2014 18:16 21,0 C 18,9 C 46 % 1003,8 hPa 0,0 l/m 0 min 0 min 0,0 UV-I 86 W/m 18,0 km/h (3 Bft)
20.04.2014 18:18 20,9 C 18,9 C 46 % 1003,8 hPa 0,0 l/m 0 min 0 min 0,0 UV-I 102 W/m 7,7 km/h (2 Bft)
20.04.2014 18:20 20,8 C 18,9 C 47 % 1003,8 hPa 0,0 l/m 0 min 0 min 0,0 UV-I 120 W/m 10,3 km/h (2 Bft)
20.04.2014 18:22 20,8 C 18,9 C 46 % 1003,8 hPa 0,0 l/m 0 min 0 min 0,0 UV-I 134 W/m 7,7 km/h (2 Bft)
20.04.2014 18:24 21,0 C 19,4 C 47 % 1003,8 hPa 0,0 l/m 0 min 0 min 0,0 UV-I 134 W/m 0,0 km/h (0 Bft)
20.04.2014 18:26 21,2 C 19,4 C 46 % 1003,8 hPa 0,0 l/m 0 min 0 min 0,0 UV-I 121 W/m 10,3 km/h (2 Bft)
20.04.2014 18:28 21,2 C 19,4 C 46 % 1003,8 hPa 0,0 l/m 0 min 0 min 0,0 UV-I 114 W/m 18,0 km/h (3 Bft)
20.04.2014 18:30 21,2 C 19,4 C 45 % 1003,8 hPa 0,0 l/m 0 min 0 min 0,0 UV-I 100 W/m 18,0 km/h (3 Bft)
20.04.2014 18:32 21,1 C 19,4 C 46 % 1003,9 hPa 0,0 l/m 0 min 0 min 0,0 UV-I 95 W/m 2,6 km/h (1 Bft)
20.04.2014 18:34 21,1 C 19,4 C 46 % 1003,9 hPa 0,0 l/m 0 min 0 min 0,0 UV-I 90 W/m 15,4 km/h (3 Bft)
20.04.2014 18:36 21,0 C 19,4 C 45 % 1003,9 hPa 0,0 l/m 0 min 0 min 0,0 UV-I 81 W/m 12,9 km/h (3 Bft)
20.04.2014 18:38 20,9 C 18,9 C 46 % 1003,9 hPa 0,0 l/m 0 min 0 min 0,0 UV-I 77 W/m 10,3 km/h (2 Bft)
20.04.2014 18:40 20,8 C 18,9 C 45 % 1003,9 hPa 0,0 l/m 0 min 0 min 0,0 UV-I 76 W/m 5,1 km/h (1 Bft)
20.04.2014 18:42 20,8 C 18,9 C 46 % 1003,9 hPa 0,0 l/m 0 min 0 min 0,0 UV-I 74 W/m 18,0 km/h (3 Bft)
20.04.2014 18:44 20,7 C 18,9 C 45 % 1003,9 hPa 0,0 l/m 0 min 0 min 0,0 UV-I 70 W/m 18,0 km/h (3 Bft)
20.04.2014 18:46 20,6 C 18,9 C 46 % 1003,9 hPa 0,0 l/m 0 min 0 min 0,0 UV-I 63 W/m 15,4 km/h (3 Bft)
20.04.2014 18:48 20,6 C 18,9 C 46 % 1004,0 hPa 0,0 l/m 0 min 0 min 0,0 UV-I 56 W/m 12,9 km/h (3 Bft)
20.04.2014 18:50 20,5 C 18,3 C 46 % 1004,0 hPa 0,0 l/m 0 min 0 min 0,0 UV-I 49 W/m 5,1 km/h (1 Bft)
20.04.2014 18:52 20,4 C 18,3 C 47 % 1004,1 hPa 0,0 l/m 0 min 0 min 0,0 UV-I 46 W/m 7,7 km/h (2 Bft)
20.04.2014 18:54 20,3 C 18,3 C 47 % 1004,1 hPa 0,0 l/m 0 min 0 min 0,0 UV-I 46 W/m 7,7 km/h (2 Bft)
20.04.2014 18:56 20,2 C 18,3 C 47 % 1004,1 hPa 0,0 l/m 0 min 0 min 0,0 UV-I 47 W/m 7,7 km/h (2 Bft)
20.04.2014 18:58 20,1 C 17,8 C 47 % 1004,1 hPa 0,0 l/m 0 min 0 min 0,0 UV-I 58 W/m 10,3 km/h (2 Bft)
20.04.2014 19:00 20,1 C 17,8 C 47 % 1004,0 hPa 0,0 l/m 0 min 0 min 0,0 UV-I 65 W/m 7,7 km/h (2 Bft)
20.04.2014 19:02 19,9 C 17,8 C 48 % 1004,0 hPa 0,0 l/m 0 min 0 min 0,0 UV-I 72 W/m 7,7 km/h (2 Bft)
20.04.2014 19:06 19,9 C 17,8 C 47 % 1004,1 hPa 0,0 l/m 0 min 0 min 0,0 UV-I 86 W/m 10,3 km/h (2 Bft)
20.04.2014 19:08 20,0 C 17,8 C 47 % 1004,0 hPa 0,0 l/m 0 min 0 min 0,0 UV-I 88 W/m 10,3 km/h (2 Bft)
20.04.2014 19:10 20,0 C 17,8 C 48 % 1004,0 hPa 0,0 l/m 0 min 0 min 0,0 UV-I 83 W/m 7,7 km/h (2 Bft)
20.04.2014 19:12 20,1 C 18,3 C 47 % 1004,1 hPa 0,0 l/m 0 min 0 min 0,0 UV-I 74 W/m 2,6 km/h (1 Bft)
20.04.2014 19:14 20,1 C 18,3 C 48 % 1004,1 hPa 0,0 l/m 0 min 0 min 0,0 UV-I 65 W/m 2,6 km/h (1 Bft)
20.04.2014 19:16 20,1 C 17,8 C 48 % 1004,0 hPa 0,0 l/m 0 min 0 min 0,0 UV-I 54 W/m 0,0 km/h (0 Bft)
20.04.2014 19:18 20,1 C 17,8 C 48 % 1004,0 hPa 0,0 l/m 0 min 0 min 0,0 UV-I 49 W/m 2,6 km/h (1 Bft)
20.04.2014 19:20 20,0 C 17,8 C 48 % 1004,0 hPa 0,0 l/m 0 min 0 min 0,0 UV-I 46 W/m 0,0 km/h (0 Bft)
20.04.2014 19:22 20,0 C 17,8 C 47 % 1004,0 hPa 0,0 l/m 0 min 0 min 0,0 UV-I 42 W/m 5,1 km/h (1 Bft)
20.04.2014 19:24 20,0 C 17,8 C 48 % 1004,1 hPa 0,0 l/m 0 min 0 min 0,0 UV-I 40 W/m 7,7 km/h (2 Bft)
20.04.2014 19:26 19,9 C 17,8 C 48 % 1004,1 hPa 0,0 l/m 0 min 0 min 0,0 UV-I 39 W/m 0,0 km/h (0 Bft)
20.04.2014 19:28 19,9 C 17,8 C 48 % 1004,1 hPa 0,0 l/m 0 min 0 min 0,0 UV-I 37 W/m 12,9 km/h (3 Bft)
20.04.2014 19:30 19,9 C 17,8 C 48 % 1004,1 hPa 0,0 l/m 0 min 0 min 0,0 UV-I 37 W/m 10,3 km/h (2 Bft)
20.04.2014 19:32 19,9 C 17,8 C 48 % 1004,1 hPa 0,0 l/m 0 min 0 min 0,0 UV-I 37 W/m 2,6 km/h (1 Bft)
20.04.2014 19:34 19,9 C 17,8 C 48 % 1004,1 hPa 0,0 l/m 0 min 0 min 0,0 UV-I 37 W/m 0,0 km/h (0 Bft)
20.04.2014 19:36 20,0 C 17,2 C 48 % 1004,1 hPa 0,0 l/m 0 min 0 min 0,0 UV-I 33 W/m 0,0 km/h (0 Bft)
20.04.2014 19:38 19,9 C 17,2 C 48 % 1004,1 hPa 0,0 l/m 0 min 0 min 0,0 UV-I 30 W/m 7,7 km/h (2 Bft)
20.04.2014 19:40 19,9 C 17,2 C 48 % 1004,2 hPa 0,0 l/m 0 min 0 min 0,0 UV-I 28 W/m 10,3 km/h (2 Bft)
20.04.2014 19:42 19,9 C 17,2 C 48 % 1004,2 hPa 0,0 l/m 0 min 0 min 0,0 UV-I 30 W/m 5,1 km/h (1 Bft)
20.04.2014 19:44 19,8 C 17,2 C 48 % 1004,2 hPa 0,0 l/m 0 min 0 min 0,0 UV-I 32 W/m 5,1 km/h (1 Bft)
20.04.2014 19:46 19,8 C 17,2 C 48 % 1004,3 hPa 0,0 l/m 0 min 0 min 0,0 UV-I 35 W/m 10,3 km/h (2 Bft)
20.04.2014 19:48 19,8 C 17,2 C 48 % 1004,2 hPa 0,0 l/m 0 min 0 min 0,0 UV-I 35 W/m 5,1 km/h (1 Bft)
20.04.2014 19:50 19,7 C 17,2 C 48 % 1004,2 hPa 0,0 l/m 0 min 0 min 0,0 UV-I 35 W/m 0,0 km/h (0 Bft)
20.04.2014 19:52 19,6 C 17,2 C 48 % 1004,2 hPa 0,0 l/m 0 min 0 min 0,0 UV-I 33 W/m 10,3 km/h (2 Bft)
20.04.2014 19:54 19,6 C 17,2 C 48 % 1004,2 hPa 0,0 l/m 0 min 0 min 0,0 UV-I 33 W/m 2,6 km/h (1 Bft)
20.04.2014 19:56 19,5 C 16,7 C 49 % 1004,2 hPa 0,0 l/m 0 min 0 min 0,0 UV-I 32 W/m 10,3 km/h (2 Bft)
20.04.2014 19:58 19,4 C 16,7 C 48 % 1004,3 hPa 0,0 l/m 0 min 0 min 0,0 UV-I 26 W/m 10,3 km/h (2 Bft)
20.04.2014 20:00 19,4 C 16,7 C 48 % 1004,3 hPa 0,0 l/m 0 min 0 min 0,0 UV-I 21 W/m 7,7 km/h (2 Bft)
20.04.2014 20:02 19,4 C 16,7 C 48 % 1004,3 hPa 0,0 l/m 0 min 0 min 0,0 UV-I 16 W/m 12,9 km/h (3 Bft)
20.04.2014 20:06 19,3 C 16,7 C 48 % 1004,2 hPa 0,0 l/m 0 min 0 min 0,0 UV-I 12 W/m 2,6 km/h (1 Bft)
20.04.2014 20:08 19,2 C 16,7 C 48 % 1004,3 hPa 0,0 l/m 0 min 0 min 0,0 UV-I 12 W/m 10,3 km/h (2 Bft)
20.04.2014 20:10 19,2 C 16,7 C 49 % 1004,3 hPa 0,0 l/m 0 min 0 min 0,0 UV-I 12 W/m 12,9 km/h (3 Bft)
20.04.2014 20:12 19,2 C 16,7 C 48 % 1004,4 hPa 0,0 l/m 0 min 0 min 0,0 UV-I 12 W/m 10,3 km/h (2 Bft)
20.04.2014 20:14 19,2 C 16,7 C 49 % 1004,4 hPa 0,0 l/m 0 min 0 min 0,0 UV-I 12 W/m 7,7 km/h (2 Bft)
20.04.2014 20:16 19,1 C 16,7 C 49 % 1004,5 hPa 0,0 l/m 0 min 0 min 0,0 UV-I 11 W/m 2,6 km/h (1 Bft)
20.04.2014 20:18 19,0 C 16,7 C 49 % 1004,5 hPa 0,0 l/m 0 min 0 min 0,0 UV-I 9 W/m 2,6 km/h (1 Bft)
20.04.2014 20:20 19,0 C 16,7 C 48 % 1004,5 hPa 0,0 l/m 0 min 0 min 0,0 UV-I 7 W/m 10,3 km/h (2 Bft)
20.04.2014 20:22 18,9 C 16,7 C 48 % 1004,5 hPa 0,0 l/m 0 min 0 min 0,0 UV-I 7 W/m 10,3 km/h (2 Bft)
20.04.2014 20:24 18,9 C 16,7 C 48 % 1004,6 hPa 0,0 l/m 0 min 0 min 0,0 UV-I 7 W/m 2,6 km/h (1 Bft)
20.04.2014 20:26 18,8 C 16,1 C 49 % 1004,6 hPa 0,0 l/m 0 min 0 min 0,0 UV-I 5 W/m 0,0 km/h (0 Bft)
20.04.2014 20:28 18,8 C 16,1 C 49 % 1004,6 hPa 0,0 l/m 0 min 0 min 0,0 UV-I 5 W/m 2,6 km/h (1 Bft)
20.04.2014 20:30 18,8 C 16,1 C 49 % 1004,6 hPa 0,0 l/m 0 min 0 min 0,0 UV-I 5 W/m 0,0 km/h (0 Bft)
20.04.2014 20:32 18,7 C 16,1 C 49 % 1004,7 hPa 0,0 l/m 0 min 0 min 0,0 UV-I 5 W/m 0,0 km/h (0 Bft)
20.04.2014 20:34 18,7 C 16,1 C 50 % 1004,6 hPa 0,0 l/m 0 min 0 min 0,0 UV-I 0 W/m 0,0 km/h (0 Bft)
20.04.2014 20:36 18,6 C 16,1 C 50 % 1004,6 hPa 0,0 l/m 0 min 0 min 0,0 UV-I 0 W/m 0,0 km/h (0 Bft)
20.04.2014 20:38 18,6 C 16,1 C 50 % 1004,6 hPa 0,0 l/m 0 min 0 min 0,0 UV-I 0 W/m 2,6 km/h (1 Bft)
20.04.2014 20:40 18,5 C 15,6 C 50 % 1004,7 hPa 0,0 l/m 0 min 0 min 0,0 UV-I 0 W/m 2,6 km/h (1 Bft)
20.04.2014 20:42 18,5 C 15,6 C 50 % 1004,7 hPa 0,0 l/m 0 min 0 min 0,0 UV-I 0 W/m 0,0 km/h (0 Bft)
20.04.2014 20:44 18,4 C 15,6 C 50 % 1004,7 hPa 0,0 l/m 0 min 0 min 0,0 UV-I 0 W/m 2,6 km/h (1 Bft)
20.04.2014 20:46 18,4 C 15,6 C 50 % 1004,7 hPa 0,0 l/m 0 min 0 min 0,0 UV-I 0 W/m 0,0 km/h (0 Bft)
20.04.2014 20:48 18,3 C 15,6 C 50 % 1004,7 hPa 0,0 l/m 0 min 0 min 0,0 UV-I 0 W/m 2,6 km/h (1 Bft)
20.04.2014 20:50 18,3 C 15,6 C 50 % 1004,8 hPa 0,0 l/m 0 min 0 min 0,0 UV-I 0 W/m 2,6 km/h (1 Bft)
20.04.2014 20:52 18,3 C 15,6 C 50 % 1004,8 hPa 0,0 l/m 0 min 0 min 0,0 UV-I 0 W/m 5,1 km/h (1 Bft)
20.04.2014 20:54 18,3 C 15,6 C 50 % 1004,8 hPa 0,0 l/m 0 min 0 min 0,0 UV-I 0 W/m 2,6 km/h (1 Bft)
20.04.2014 20:56 18,3 C 15,6 C 51 % 1004,8 hPa 0,0 l/m 0 min 0 min 0,0 UV-I 0 W/m 2,6 km/h (1 Bft)
20.04.2014 20:58 18,3 C 15,6 C 50 % 1004,9 hPa 0,0 l/m 0 min 0 min 0,0 UV-I 0 W/m 2,6 km/h (1 Bft)
20.04.2014 21:00 18,2 C 15,6 C 51 % 1004,9 hPa 0,0 l/m 0 min 0 min 0,0 UV-I 0 W/m 7,7 km/h (2 Bft)
20.04.2014 21:02 18,1 C 15,6 C 51 % 1005,0 hPa 0,0 l/m 0 min 0 min 0,0 UV-I 0 W/m 2,6 km/h (1 Bft)
20.04.2014 21:06 18,1 C 15,6 C 51 % 1005,1 hPa 0,0 l/m 0 min 0 min 0,0 UV-I 0 W/m 5,1 km/h (1 Bft)
20.04.2014 21:08 18,1 C 15,6 C 51 % 1005,1 hPa 0,0 l/m 0 min 0 min 0,0 UV-I 0 W/m 7,7 km/h (2 Bft)
20.04.2014 21:10 18,1 C 15,6 C 51 % 1005,1 hPa 0,0 l/m 0 min 0 min 0,0 UV-I 0 W/m 7,7 km/h (2 Bft)
20.04.2014 21:12 18,1 C 15,6 C 51 % 1005,1 hPa 0,0 l/m 0 min 0 min 0,0 UV-I 0 W/m 2,6 km/h (1 Bft)
20.04.2014 21:14 18,1 C 15,6 C 52 % 1005,1 hPa 0,0 l/m 0 min 0 min 0,0 UV-I 0 W/m 7,7 km/h (2 Bft)
20.04.2014 21:16 18,1 C 15,6 C 52 % 1005,2 hPa 0,0 l/m 0 min 0 min 0,0 UV-I 0 W/m 0,0 km/h (0 Bft)
20.04.2014 21:18 18,0 C 15,6 C 52 % 1005,2 hPa 0,0 l/m 0 min 0 min 0,0 UV-I 0 W/m 0,0 km/h (0 Bft)
20.04.2014 21:20 17,9 C 15,0 C 52 % 1005,2 hPa 0,0 l/m 0 min 0 min 0,0 UV-I 0 W/m 0,0 km/h (0 Bft)
20.04.2014 21:22 17,8 C 15,0 C 53 % 1005,2 hPa 0,0 l/m 0 min 0 min 0,0 UV-I 0 W/m 0,0 km/h (0 Bft)
20.04.2014 21:24 17,7 C 15,0 C 53 % 1005,2 hPa 0,0 l/m 0 min 0 min 0,0 UV-I 0 W/m 0,0 km/h (0 Bft)
20.04.2014 21:26 17,5 C 14,4 C 54 % 1005,2 hPa 0,0 l/m 0 min 0 min 0,0 UV-I 0 W/m 0,0 km/h (0 Bft)
20.04.2014 21:28 17,4 C 14,4 C 55 % 1005,2 hPa 0,0 l/m 0 min 0 min 0,0 UV-I 0 W/m 0,0 km/h (0 Bft)
20.04.2014 21:30 17,2 C 14,4 C 54 % 1005,2 hPa 0,0 l/m 0 min 0 min 0,0 UV-I 0 W/m 0,0 km/h (0 Bft)
20.04.2014 21:32 17,2 C 14,4 C 54 % 1005,3 hPa 0,0 l/m 0 min 0 min 0,0 UV-I 0 W/m 0,0 km/h (0 Bft)
20.04.2014 21:34 17,1 C 14,4 C 55 % 1005,2 hPa 0,0 l/m 0 min 0 min 0,0 UV-I 0 W/m 0,0 km/h (0 Bft)
20.04.2014 21:36 17,1 C 13,9 C 56 % 1005,3 hPa 0,0 l/m 0 min 0 min 0,0 UV-I 0 W/m 0,0 km/h (0 Bft)
20.04.2014 21:38 17,0 C 13,9 C 55 % 1005,3 hPa 0,0 l/m 0 min 0 min 0,0 UV-I 0 W/m 0,0 km/h (0 Bft)
20.04.2014 21:40 16,9 C 13,9 C 56 % 1005,3 hPa 0,0 l/m 0 min 0 min 0,0 UV-I 0 W/m 0,0 km/h (0 Bft)
20.04.2014 21:42 16,9 C 13,9 C 56 % 1005,2 hPa 0,0 l/m 0 min 0 min 0,0 UV-I 0 W/m 0,0 km/h (0 Bft)
20.04.2014 21:44 16,9 C 13,9 C 56 % 1005,2 hPa 0,0 l/m 0 min 0 min 0,0 UV-I 0 W/m 2,6 km/h (1 Bft)
20.04.2014 21:46 16,8 C 13,9 C 56 % 1005,3 hPa 0,0 l/m 0 min 0 min 0,0 UV-I 0 W/m 0,0 km/h (0 Bft)
20.04.2014 21:48 16,8 C 13,9 C 56 % 1005,3 hPa 0,0 l/m 0 min 0 min 0,0 UV-I 0 W/m 2,6 km/h (1 Bft)
20.04.2014 21:50 16,8 C 13,9 C 56 % 1005,3 hPa 0,0 l/m 0 min 0 min 0,0 UV-I 0 W/m 0,0 km/h (0 Bft)
20.04.2014 21:52 16,8 C 13,9 C 56 % 1005,3 hPa 0,0 l/m 0 min 0 min 0,0 UV-I 0 W/m 0,0 km/h (0 Bft)
20.04.2014 21:54 16,7 C 13,9 C 57 % 1005,3 hPa 0,0 l/m 0 min 0 min 0,0 UV-I 0 W/m 0,0 km/h (0 Bft)
20.04.2014 21:56 16,6 C 13,3 C 57 % 1005,3 hPa 0,0 l/m 0 min 0 min 0,0 UV-I 0 W/m 0,0 km/h (0 Bft)
20.04.2014 21:58 16,5 C 13,3 C 58 % 1005,4 hPa 0,0 l/m 0 min 0 min 0,0 UV-I 0 W/m 0,0 km/h (0 Bft)
20.04.2014 22:00 16,4 C 13,3 C 57 % 1005,4 hPa 0,0 l/m 0 min 0 min 0,0 UV-I 0 W/m 0,0 km/h (0 Bft)
20.04.2014 22:02 16,4 C 13,3 C 58 % 1005,4 hPa 0,0 l/m 0 min 0 min 0,0 UV-I 0 W/m 0,0 km/h (0 Bft)
20.04.2014 22:06 16,3 C 13,3 C 59 % 1005,4 hPa 0,0 l/m 0 min 0 min 0,0 UV-I 0 W/m 0,0 km/h (0 Bft)
20.04.2014 22:08 16,2 C 13,3 C 59 % 1005,4 hPa 0,0 l/m 0 min 0 min 0,0 UV-I 0 W/m 0,0 km/h (0 Bft)
20.04.2014 22:10 16,1 C 12,8 C 59 % 1005,5 hPa 0,0 l/m 0 min 0 min 0,0 UV-I 0 W/m 0,0 km/h (0 Bft)
20.04.2014 22:12 16,1 C 12,8 C 59 % 1005,5 hPa 0,0 l/m 0 min 0 min 0,0 UV-I 0 W/m 0,0 km/h (0 Bft)
20.04.2014 22:14 16,1 C 12,8 C 59 % 1005,5 hPa 0,0 l/m 0 min 0 min 0,0 UV-I 0 W/m 0,0 km/h (0 Bft)
20.04.2014 22:16 16,0 C 12,8 C 60 % 1005,6 hPa 0,0 l/m 0 min 0 min 0,0 UV-I 0 W/m 0,0 km/h (0 Bft)
20.04.2014 22:18 15,9 C 12,8 C 60 % 1005,6 hPa 0,0 l/m 0 min 0 min 0,0 UV-I 0 W/m 0,0 km/h (0 Bft)
20.04.2014 22:20 15,8 C 12,8 C 60 % 1005,6 hPa 0,0 l/m 0 min 0 min 0,0 UV-I 0 W/m 0,0 km/h (0 Bft)
20.04.2014 22:22 15,6 C 12,2 C 61 % 1005,7 hPa 0,0 l/m 0 min 0 min 0,0 UV-I 0 W/m 0,0 km/h (0 Bft)
20.04.2014 22:24 15,5 C 12,2 C 61 % 1005,7 hPa 0,0 l/m 0 min 0 min 0,0 UV-I 0 W/m 0,0 km/h (0 Bft)
20.04.2014 22:26 15,4 C 12,2 C 61 % 1005,7 hPa 0,0 l/m 0 min 0 min 0,0 UV-I 0 W/m 0,0 km/h (0 Bft)
20.04.2014 22:28 15,4 C 12,8 C 61 % 1005,8 hPa 0,0 l/m 0 min 0 min 0,0 UV-I 0 W/m 5,1 km/h (1 Bft)
20.04.2014 22:30 15,5 C 12,8 C 61 % 1005,8 hPa 0,0 l/m 0 min 0 min 0,0 UV-I 0 W/m 10,3 km/h (2 Bft)
20.04.2014 22:32 15,7 C 13,3 C 60 % 1005,8 hPa 0,0 l/m 0 min 0 min 0,0 UV-I 0 W/m 0,0 km/h (0 Bft)
20.04.2014 22:34 15,8 C 13,3 C 60 % 1005,8 hPa 0,0 l/m 0 min 0 min 0,0 UV-I 0 W/m 0,0 km/h (0 Bft)
20.04.2014 22:36 15,8 C 13,3 C 60 % 1005,8 hPa 0,0 l/m 0 min 0 min 0,0 UV-I 0 W/m 0,0 km/h (0 Bft)
20.04.2014 22:38 15,7 C 13,3 C 60 % 1005,8 hPa 0,0 l/m 0 min 0 min 0,0 UV-I 0 W/m 0,0 km/h (0 Bft)
20.04.2014 22:40 15,7 C 12,8 C 61 % 1005,8 hPa 0,0 l/m 0 min 0 min 0,0 UV-I 0 W/m 0,0 km/h (0 Bft)
20.04.2014 22:42 15,6 C 12,8 C 61 % 1005,8 hPa 0,0 l/m 0 min 0 min 0,0 UV-I 0 W/m 0,0 km/h (0 Bft)
20.04.2014 22:44 15,6 C 12,8 C 61 % 1005,8 hPa 0,0 l/m 0 min 0 min 0,0 UV-I 0 W/m 0,0 km/h (0 Bft)
20.04.2014 22:46 15,4 C 12,8 C 61 % 1005,8 hPa 0,0 l/m 0 min 0 min 0,0 UV-I 0 W/m 0,0 km/h (0 Bft)
20.04.2014 22:48 15,3 C 12,2 C 62 % 1005,8 hPa 0,0 l/m 0 min 0 min 0,0 UV-I 0 W/m 0,0 km/h (0 Bft)
20.04.2014 22:50 15,2 C 12,2 C 62 % 1005,8 hPa 0,0 l/m 0 min 0 min 0,0 UV-I 0 W/m 0,0 km/h (0 Bft)
20.04.2014 22:52 15,2 C 12,2 C 62 % 1005,8 hPa 0,0 l/m 0 min 0 min 0,0 UV-I 0 W/m 0,0 km/h (0 Bft)
20.04.2014 22:54 15,2 C 12,2 C 62 % 1005,9 hPa 0,0 l/m 0 min 0 min 0,0 UV-I 0 W/m 0,0 km/h (0 Bft)
20.04.2014 22:56 15,2 C 12,2 C 62 % 1005,8 hPa 0,0 l/m 0 min 0 min 0,0 UV-I 0 W/m 0,0 km/h (0 Bft)
20.04.2014 22:58 15,2 C 12,2 C 62 % 1005,8 hPa 0,0 l/m 0 min 0 min 0,0 UV-I 0 W/m 0,0 km/h (0 Bft)
20.04.2014 23:00 15,2 C 12,2 C 62 % 1005,8 hPa 0,0 l/m 0 min 0 min 0,0 UV-I 0 W/m 0,0 km/h (0 Bft)
20.04.2014 23:02 15,2 C 12,2 C 62 % 1005,8 hPa 0,0 l/m 0 min 0 min 0,0 UV-I 0 W/m 0,0 km/h (0 Bft)
20.04.2014 23:06 14,9 C 11,7 C 63 % 1005,8 hPa 0,0 l/m 0 min 0 min 0,0 UV-I 0 W/m 0,0 km/h (0 Bft)
20.04.2014 23:08 14,9 C 11,7 C 63 % 1005,8 hPa 0,0 l/m 0 min 0 min 0,0 UV-I 0 W/m 0,0 km/h (0 Bft)
20.04.2014 23:10 14,8 C 11,7 C 63 % 1005,8 hPa 0,0 l/m 0 min 0 min 0,0 UV-I 0 W/m 0,0 km/h (0 Bft)
20.04.2014 23:12 14,8 C 11,7 C 63 % 1005,8 hPa 0,0 l/m 0 min 0 min 0,0 UV-I 0 W/m 0,0 km/h (0 Bft)
20.04.2014 23:14 14,7 C 11,7 C 63 % 1005,9 hPa 0,0 l/m 0 min 0 min 0,0 UV-I 0 W/m 0,0 km/h (0 Bft)
20.04.2014 23:16 14,7 C 11,7 C 63 % 1005,9 hPa 0,0 l/m 0 min 0 min 0,0 UV-I 0 W/m 0,0 km/h (0 Bft)
20.04.2014 23:18 14,6 C 11,7 C 64 % 1005,9 hPa 0,0 l/m 0 min 0 min 0,0 UV-I 0 W/m 0,0 km/h (0 Bft)
20.04.2014 23:20 14,6 C 11,7 C 64 % 1005,9 hPa 0,0 l/m 0 min 0 min 0,0 UV-I 0 W/m 0,0 km/h (0 Bft)
20.04.2014 23:22 14,6 C 11,7 C 64 % 1005,9 hPa 0,0 l/m 0 min 0 min 0,0 UV-I 0 W/m 0,0 km/h (0 Bft)
20.04.2014 23:24 14,4 C 11,1 C 64 % 1005,9 hPa 0,0 l/m 0 min 0 min 0,0 UV-I 0 W/m 0,0 km/h (0 Bft)
20.04.2014 23:26 14,3 C 11,1 C 65 % 1005,8 hPa 0,0 l/m 0 min 0 min 0,0 UV-I 0 W/m 0,0 km/h (0 Bft)
20.04.2014 23:28 14,2 C 11,1 C 65 % 1005,9 hPa 0,0 l/m 0 min 0 min 0,0 UV-I 0 W/m 0,0 km/h (0 Bft)
20.04.2014 23:30 14,2 C 11,1 C 66 % 1005,9 hPa 0,0 l/m 0 min 0 min 0,0 UV-I 0 W/m 0,0 km/h (0 Bft)
20.04.2014 23:32 14,1 C 11,1 C 66 % 1006,0 hPa 0,0 l/m 0 min 0 min 0,0 UV-I 0 W/m 0,0 km/h (0 Bft)
20.04.2014 23:34 14,0 C 11,1 C 66 % 1006,0 hPa 0,0 l/m 0 min 0 min 0,0 UV-I 0 W/m 0,0 km/h (0 Bft)
20.04.2014 23:36 13,9 C 10,6 C 66 % 1006,0 hPa 0,0 l/m 0 min 0 min 0,0 UV-I 0 W/m 0,0 km/h (0 Bft)
20.04.2014 23:38 13,8 C 10,6 C 67 % 1006,0 hPa 0,0 l/m 0 min 0 min 0,0 UV-I 0 W/m 0,0 km/h (0 Bft)
20.04.2014 23:40 13,7 C 10,6 C 67 % 1006,0 hPa 0,0 l/m 0 min 0 min 0,0 UV-I 0 W/m 0,0 km/h (0 Bft)
20.04.2014 23:42 13,6 C 10,6 C 67 % 1006,0 hPa 0,0 l/m 0 min 0 min 0,0 UV-I 0 W/m 0,0 km/h (0 Bft)
20.04.2014 23:44 13,6 C 10,6 C 68 % 1006,0 hPa 0,0 l/m 0 min 0 min 0,0 UV-I 0 W/m 0,0 km/h (0 Bft)
20.04.2014 23:46 13,4 C 10,6 C 68 % 1006,0 hPa 0,0 l/m 0 min 0 min 0,0 UV-I 0 W/m 0,0 km/h (0 Bft)
20.04.2014 23:48 13,4 C 10,6 C 68 % 1006,0 hPa 0,0 l/m 0 min 0 min 0,0 UV-I 0 W/m 0,0 km/h (0 Bft)
20.04.2014 23:50 13,3 C 10,6 C 69 % 1006,0 hPa 0,0 l/m 0 min 0 min 0,0 UV-I 0 W/m 0,0 km/h (0 Bft)
20.04.2014 23:52 13,2 C 10,0 C 69 % 1006,1 hPa 0,0 l/m 0 min 0 min 0,0 UV-I 0 W/m 0,0 km/h (0 Bft)
20.04.2014 23:54 13,2 C 10,0 C 69 % 1006,1 hPa 0,0 l/m 0 min 0 min 0,0 UV-I 0 W/m 0,0 km/h (0 Bft)
20.04.2014 23:56 13,1 C 10,0 C 69 % 1006,0 hPa 0,0 l/m 0 min 0 min 0,0 UV-I 0 W/m 0,0 km/h (0 Bft)
20.04.2014 23:58 12,9 C 10,0 C 70 % 1006,0 hPa 0,0 l/m 0 min 0 min 0,0 UV-I 0 W/m 0,0 km/h (0 Bft)
_ Min-Zeit 05:10 04:38 15:56 16:52 - - - - - 00:00
Minimum _ 10,7 C 8,9 C 42 % 1003,7 hPa - - - - - 0,0 km/h (0 Bft)
_ Max-Zeit 16:22 16:20 05:24 00:00 00:00 09:34 00:00 13:52 13:44 14:14
Maximum _ 23,9 C 23,9 C 91 % 1011,5 hPa 0,0 l/m 2 min 0 min 3,1 UV-I 928 W/m 41,2 km/h
O-SO (6 Bft)
Durchschnitt _ 16,5 C 14,9 C 67 % 1006,7 hPa #0,0 l/m #6:00 h #0 min. 1,6 UV-I 343 W/m 8,4 km/h (2 Bft)
© 2014 W. Hausmann